Observation data for Doole 3WNW on 08/14/2019      Previous  Date  Next       Current Mesonet Observations  Soil Data  Daily Summary Page  Observations in Plain Language
KDO2 140500Z 08006KT 29/17 A2996 RMK A01 T02900165  RH  047%=      5-min Rain = 0
KDO2 140501Z 08006KT 29/17 A2996 RMK A01 T02900165  RH  047%=      5-min Rain = 0
KDO2 140502Z 08006KT 29/17 A2996 RMK A01 T02900165  RH  047%=      5-min Rain = 0
KDO2 140503Z 08006KT 29/17 A2996 RMK A01 T02890165  RH  047%=      5-min Rain = 0
KDO2 140504Z 08006KT 29/17 A2996 RMK A01 T02890165  RH  047%=      5-min Rain = 0
KDO2 140505Z 08006KT 29/17 A2996 RMK A01 T02900165  RH  047%=      5-min Rain = 0
KDO2 140506Z 08006KT 29/17 A2996 RMK A01 T02890165  RH  047%=      5-min Rain = 0
KDO2 140507Z 08006KT 29/17 A2996 RMK A01 T02890165  RH  047%=      5-min Rain = 0
KDO2 140508Z 08006KT 29/17 A2996 RMK A01 T02900165  RH  047%=      5-min Rain = 0
KDO2 140509Z 08006KT 29/17 A2996 RMK A01 T02890165  RH  047%=      5-min Rain = 0
KDO2 140510Z 08006KT 29/17 A2996 RMK A01 T02890165  RH  047%=      5-min Rain = 0
KDO2 140526Z 10006KT 29/17 A2996 RMK A01 T02880167  RH  048%=      5-min Rain = 0
KDO2 140527Z 10006KT 29/17 A2996 RMK A01 T02880167  RH  048%=      5-min Rain = 0
KDO2 140528Z 10006KT 29/17 A2996 RMK A01 T02880167  RH  048%=      5-min Rain = 0
KDO2 140529Z 10005KT 29/17 A2996 RMK A01 T02880168  RH  048%=      5-min Rain = 0
KDO2 140530Z 10006KT 29/17 A2996 RMK A01 T02880168  RH  048%=      5-min Rain = 0
KDO2 140531Z 11006KT 29/17 A2996 RMK A01 T02870168  RH  048%=      5-min Rain = 0
KDO2 140532Z 11006KT 29/17 A2996 RMK A01 T02870168  RH  049%=      5-min Rain = 0
KDO2 140533Z 11006KT 29/17 A2996 RMK A01 T02870168  RH  049%=      5-min Rain = 0
KDO2 140534Z 11006KT 29/17 A2996 RMK A01 T02870169  RH  049%=      5-min Rain = 0
KDO2 140535Z 11006KT 29/17 A2996 RMK A01 T02870168  RH  049%=      5-min Rain = 0
KDO2 140536Z 11006KT 29/17 A2996 RMK A01 T02870168  RH  048%=      5-min Rain = 0
KDO2 140537Z 11006KT 29/17 A2996 RMK A01 T02870168  RH  048%=      5-min Rain = 0
KDO2 140538Z 11006KT 29/17 A2996 RMK A01 T02880168  RH  048%=      5-min Rain = 0
KDO2 140539Z 11006KT 29/17 A2996 RMK A01 T02880168  RH  048%=      5-min Rain = 0
KDO2 140540Z 11006KT 29/17 A2996 RMK A01 T02880168  RH  048%=      5-min Rain = 0
KDO2 140541Z 11006KT 29/17 A2996 RMK A01 T02880168  RH  048%=      5-min Rain = 0
KDO2 140542Z 11006KT 29/17 A2996 RMK A01 T02880168  RH  048%=      5-min Rain = 0
KDO2 140543Z 10006KT 29/17 A2996 RMK A01 T02880169  RH  048%=      5-min Rain = 0
KDO2 140544Z 10005KT 29/17 A2996 RMK A01 T02880169  RH  048%=      5-min Rain = 0
KDO2 140545Z 10005KT 29/17 A2996 RMK A01 T02890169  RH  048%=      5-min Rain = 0
KDO2 140546Z 10005KT 29/17 A2996 RMK A01 T02880169  RH  049%=      5-min Rain = 0
KDO2 140547Z 10005KT 29/17 A2996 RMK A01 T02880169  RH  049%=      5-min Rain = 0
KDO2 140548Z 10005KT 29/17 A2996 RMK A01 T02870170  RH  049%=      5-min Rain = 0
KDO2 140549Z 10005KT 29/17 A2996 RMK A01 T02870170  RH  049%=      5-min Rain = 0
KDO2 140550Z 10005KT 29/17 A2996 RMK A01 T02860170  RH  049%=      5-min Rain = 0
KDO2 140551Z 10005KT 29/17 A2996 RMK A01 T02860170  RH  050%=      5-min Rain = 0
KDO2 140552Z 10005KT 29/17 A2996 RMK A01 T02850170  RH  050%=      5-min Rain = 0
KDO2 140553Z 10006KT 29/17 A2996 RMK A01 T02850170  RH  050%=      5-min Rain = 0
KDO2 140554Z 10005KT 29/17 A2996 RMK A01 T02850170  RH  050%=      5-min Rain = 0
KDO2 140555Z 10005KT 28/17 A2996 RMK A01 T02840170  RH  050%=      5-min Rain = 0
KDO2 140556Z 10005KT 28/17 A2996 RMK A01 T02840171  RH  050%=      5-min Rain = 0
KDO2 140557Z 10005KT 29/17 A2996 RMK A01 T02850171  RH  050%=      5-min Rain = 0
KDO2 140558Z 11005KT 29/17 A2996 RMK A01 T02850171  RH  050%=      5-min Rain = 0
KDO2 140559Z 11005KT 28/17 A2996 RMK A01 T02840171  RH  050%=      5-min Rain = 0
KDO2 140600Z 11005KT 29/17 A2996 RMK A01 T02850172  RH  050%=      5-min Rain = 0
KDO2 140601Z 11005KT 28/17 A2996 RMK A01 T02840172  RH  050%=      5-min Rain = 0
KDO2 140602Z 11006KT 28/17 A2996 RMK A01 T02840172  RH  050%=      5-min Rain = 0
KDO2 140603Z 11006KT 28/17 A2996 RMK A01 T02840172  RH  051%=      5-min Rain = 0
KDO2 140604Z 11006KT 28/17 A2996 RMK A01 T02840172  RH  051%=      5-min Rain = 0
KDO2 140605Z 11006KT 28/17 A2996 RMK A01 T02840172  RH  050%=      5-min Rain = 0
KDO2 140606Z 11005KT 28/17 A2996 RMK A01 T02840172  RH  051%=      5-min Rain = 0
KDO2 140607Z 11005KT 29/17 A2996 RMK A01 T02850172  RH  051%=      5-min Rain = 0
KDO2 140608Z 11005KT 29/17 A2996 RMK A01 T02850172  RH  051%=      5-min Rain = 0
KDO2 140609Z 11005KT 29/17 A2996 RMK A01 T02850172  RH  051%=      5-min Rain = 0
KDO2 140610Z 11005KT 29/17 A2996 RMK A01 T02850173  RH  051%=      5-min Rain = 0
KDO2 140611Z 11005KT 28/17 A2996 RMK A01 T02840173  RH  051%=      5-min Rain = 0
KDO2 140612Z 11005KT 28/17 A2996 RMK A01 T02840173  RH  051%=      5-min Rain = 0
KDO2 140613Z 10005KT 28/17 A2996 RMK A01 T02840172  RH  051%=      5-min Rain = 0
KDO2 140614Z 10005KT 28/17 A2996 RMK A01 T02840173  RH  051%=      5-min Rain = 0
KDO2 140615Z 10005KT 28/17 A2996 RMK A01 T02840173  RH  051%=      5-min Rain = 0
KDO2 140616Z 10004KT 28/17 A2996 RMK A01 T02830173  RH  051%=      5-min Rain = 0
KDO2 140617Z 10004KT 28/17 A2996 RMK A01 T02830173  RH  051%=      5-min Rain = 0
KDO2 140618Z 11004KT 28/17 A2996 RMK A01 T02820173  RH  052%=      5-min Rain = 0
KDO2 140619Z 11004KT 28/17 A2996 RMK A01 T02820173  RH  052%=      5-min Rain = 0
KDO2 140620Z 11004KT 28/17 A2996 RMK A01 T02810173  RH  052%=      5-min Rain = 0
KDO2 140621Z 11003KT 28/17 A2996 RMK A01 T02810174  RH  052%=      5-min Rain = 0
KDO2 140622Z 11003KT 28/17 A2996 RMK A01 T02800174  RH  053%=      5-min Rain = 0
KDO2 140623Z 12003KT 28/18 A2996 RMK A01 T02800175  RH  053%=      5-min Rain = 0
KDO2 140624Z 12003KT 28/18 A2996 RMK A01 T02790175  RH  053%=      5-min Rain = 0
KDO2 140625Z 12002KT 28/18 A2996 RMK A01 T02780175  RH  053%=      5-min Rain = 0
KDO2 140626Z 12002KT 28/18 A2996 RMK A01 T02780175  RH  054%=      5-min Rain = 0
KDO2 140627Z 13002KT 28/18 A2996 RMK A01 T02770175  RH  054%=      5-min Rain = 0
KDO2 140628Z 13002KT 28/18 A2996 RMK A01 T02760176  RH  054%=      5-min Rain = 0
KDO2 140629Z 13002KT 27/18 A2996 RMK A01 T02740176  RH  055%=      5-min Rain = 0
KDO2 140630Z 12002KT 27/18 A2996 RMK A01 T02730176  RH  055%=      5-min Rain = 0
KDO2 140631Z 12002KT 27/18 A2996 RMK A01 T02720177  RH  056%=      5-min Rain = 0
KDO2 140632Z 12002KT 27/18 A2996 RMK A01 T02710176  RH  056%=      5-min Rain = 0
KDO2 140633Z 12003KT 27/18 A2996 RMK A01 T02690175  RH  056%=      5-min Rain = 0
KDO2 140634Z 13002KT 27/17 A2996 RMK A01 T02680174  RH  056%=      5-min Rain = 0
KDO2 140635Z 13002KT 27/17 A2996 RMK A01 T02680174  RH  057%=      5-min Rain = 0
KDO2 140636Z 13002KT 27/17 A2996 RMK A01 T02670174  RH  057%=      5-min Rain = 0
KDO2 140637Z 13002KT 27/17 A2996 RMK A01 T02660174  RH  057%=      5-min Rain = 0
KDO2 140638Z 13002KT 27/17 A2996 RMK A01 T02660173  RH  057%=      5-min Rain = 0
KDO2 140639Z 13002KT 27/17 A2996 RMK A01 T02660174  RH  057%=      5-min Rain = 0
KDO2 140640Z 13002KT 27/17 A2996 RMK A01 T02650174  RH  057%=      5-min Rain = 0
KDO2 140641Z 13002KT 27/18 A2996 RMK A01 T02650175  RH  058%=      5-min Rain = 0
KDO2 140642Z 13002KT 26/18 A2996 RMK A01 T02640175  RH  058%=      5-min Rain = 0
KDO2 140643Z 14002KT 26/18 A2996 RMK A01 T02640175  RH  058%=      5-min Rain = 0
KDO2 140644Z 14002KT 27/18 A2996 RMK A01 T02650175  RH  058%=      5-min Rain = 0
KDO2 140645Z 14003KT 27/18 A2996 RMK A01 T02660175  RH  058%=      5-min Rain = 0
KDO2 140646Z 15003KT 27/18 A2996 RMK A01 T02660176  RH  058%=      5-min Rain = 0
KDO2 140647Z 15003KT 27/18 A2996 RMK A01 T02660177  RH  058%=      5-min Rain = 0
KDO2 140648Z 15003KT 27/18 A2996 RMK A01 T02660177  RH  058%=      5-min Rain = 0
KDO2 140649Z 15002KT 27/18 A2996 RMK A01 T02650177  RH  059%=      5-min Rain = 0
KDO2 140650Z 15002KT 26/18 A2996 RMK A01 T02640178  RH  059%=      5-min Rain = 0
KDO2 140651Z 15002KT 26/18 A2996 RMK A01 T02630177  RH  059%=      5-min Rain = 0
KDO2 140652Z 16002KT 26/18 A2996 RMK A01 T02620178  RH  060%=      5-min Rain = 0
KDO2 140653Z 16002KT 26/18 A2996 RMK A01 T02620178  RH  060%=      5-min Rain = 0
KDO2 140654Z 16002KT 26/18 A2996 RMK A01 T02610177  RH  060%=      5-min Rain = 0
KDO2 140655Z 16002KT 26/18 A2996 RMK A01 T02610177  RH  060%=      5-min Rain = 0
KDO2 140656Z 16002KT 26/18 A2996 RMK A01 T02600177  RH  060%=      5-min Rain = 0
KDO2 140657Z 16002KT 26/18 A2996 RMK A01 T02600177  RH  060%=      5-min Rain = 0
KDO2 140658Z 16002KT 26/18 A2996 RMK A01 T02590177  RH  061%=      5-min Rain = 0
KDO2 140659Z 16002KT 26/18 A2996 RMK A01 T02590177  RH  061%=      5-min Rain = 0
KDO2 140700Z 16002KT 26/18 A2996 RMK A01 T02580177  RH  061%=      5-min Rain = 0
KDO2 140701Z 16002KT 26/18 A2996 RMK A01 T02580176  RH  060%=      5-min Rain = 0
KDO2 140702Z 16002KT 26/18 A2996 RMK A01 T02580176  RH  061%=      5-min Rain = 0
KDO2 140703Z 19002KT 26/18 A2996 RMK A01 T02580177  RH  061%=      5-min Rain = 0
KDO2 140704Z 19002KT 26/18 A2997 RMK A01 T02570177  RH  061%=      5-min Rain = 0
KDO2 140705Z 18002KT 26/18 A2997 RMK A01 T02570177  RH  061%=      5-min Rain = 0
KDO2 140706Z 19002KT 26/18 A2997 RMK A01 T02570176  RH  061%=      5-min Rain = 0
KDO2 140707Z 21002KT 26/18 A2997 RMK A01 T02580177  RH  061%=      5-min Rain = 0
KDO2 140708Z 22002KT 26/18 A2997 RMK A01 T02580176  RH  060%=      5-min Rain = 0
KDO2 140709Z 23002KT 26/18 A2997 RMK A01 T02580175  RH  060%=      5-min Rain = 0
KDO2 140710Z 23002KT 26/18 A2997 RMK A01 T02590175  RH  060%=      5-min Rain = 0
KDO2 140711Z 23002KT 26/18 A2997 RMK A01 T02600175  RH  059%=      5-min Rain = 0
KDO2 140712Z 23002KT 26/18 A2997 RMK A01 T02610175  RH  059%=      5-min Rain = 0
KDO2 140713Z 23002KT 26/18 A2997 RMK A01 T02610175  RH  059%=      5-min Rain = 0
KDO2 140714Z 23002KT 26/18 A2997 RMK A01 T02610175  RH  059%=      5-min Rain = 0
KDO2 140715Z 23001KT 26/18 A2997 RMK A01 T02610175  RH  059%=      5-min Rain = 0
KDO2 140716Z 23001KT 26/18 A2997 RMK A01 T02600175  RH  059%=      5-min Rain = 0
KDO2 140717Z 23001KT 26/18 A2997 RMK A01 T02580175  RH  060%=      5-min Rain = 0
KDO2 140718Z 23000KT 26/17 A2997 RMK A01 T02570174  RH  060%=      5-min Rain = 0
KDO2 140719Z 00000KT 26/17 A2997 RMK A01 T02570174  RH  060%=      5-min Rain = 0
KDO2 140720Z 00000KT 26/17 A2997 RMK A01 T02550173  RH  060%=      5-min Rain = 0
KDO2 140721Z 00000KT 25/17 A2997 RMK A01 T02540173  RH  061%=      5-min Rain = 0
KDO2 140722Z 00000KT 25/17 A2997 RMK A01 T02530173  RH  061%=      5-min Rain = 0
KDO2 140723Z 35001KT 25/17 A2997 RMK A01 T02530174  RH  062%=      5-min Rain = 0
KDO2 140724Z 35000KT 25/17 A2997 RMK A01 T02520173  RH  062%=      5-min Rain = 0
KDO2 140725Z 00000KT 25/17 A2997 RMK A01 T02520173  RH  062%=      5-min Rain = 0
KDO2 140726Z 00000KT 25/17 A2997 RMK A01 T02520173  RH  061%=      5-min Rain = 0
KDO2 140727Z 00000KT 25/17 A2997 RMK A01 T02520173  RH  061%=      5-min Rain = 0
KDO2 140728Z 00000KT 25/17 A2997 RMK A01 T02520173  RH  061%=      5-min Rain = 0
KDO2 140729Z 00000KT 25/17 A2997 RMK A01 T02530173  RH  061%=      5-min Rain = 0
KDO2 140730Z 35000KT 25/17 A2997 RMK A01 T02530173  RH  061%=      5-min Rain = 0
KDO2 140731Z 35001KT 25/17 A2997 RMK A01 T02540174  RH  061%=      5-min Rain = 0
KDO2 140732Z 35001KT 25/17 A2997 RMK A01 T02540174  RH  061%=      5-min Rain = 0
KDO2 140733Z 35001KT 25/17 A2997 RMK A01 T02540174  RH  061%=      5-min Rain = 0
KDO2 140734Z 35000KT 25/17 A2997 RMK A01 T02540174  RH  061%=      5-min Rain = 0
KDO2 140735Z 00000KT 25/17 A2997 RMK A01 T02540174  RH  061%=      5-min Rain = 0
KDO2 140736Z 00000KT 25/17 A2997 RMK A01 T02540174  RH  061%=      5-min Rain = 0
KDO2 140737Z 00000KT 25/17 A2997 RMK A01 T02540174  RH  061%=      5-min Rain = 0
KDO2 140738Z 00000KT 26/17 A2997 RMK A01 T02550174  RH  061%=      5-min Rain = 0
KDO2 140739Z 00000KT 26/17 A2997 RMK A01 T02560173  RH  060%=      5-min Rain = 0
KDO2 140740Z 00000KT 26/17 A2997 RMK A01 T02560174  RH  061%=      5-min Rain = 0
KDO2 140741Z 00000KT 26/18 A2997 RMK A01 T02560175  RH  061%=      5-min Rain = 0
KDO2 140742Z 00000KT 26/18 A2997 RMK A01 T02550176  RH  061%=      5-min Rain = 0
KDO2 140743Z 00000KT 26/18 A2997 RMK A01 T02550176  RH  062%=      5-min Rain = 0
KDO2 140744Z 00000KT 25/18 A2997 RMK A01 T02540176  RH  062%=      5-min Rain = 0
KDO2 140745Z 00000KT 25/18 A2997 RMK A01 T02530176  RH  062%=      5-min Rain = 0
KDO2 140746Z 15001KT 25/18 A2997 RMK A01 T02530175  RH  062%=      5-min Rain = 0
KDO2 140747Z 15001KT 25/18 A2997 RMK A01 T02530175  RH  062%=      5-min Rain = 0
KDO2 140748Z 16002KT 25/18 A2997 RMK A01 T02530176  RH  062%=      5-min Rain = 0
KDO2 140749Z 15002KT 25/18 A2997 RMK A01 T02530176  RH  062%=      5-min Rain = 0
KDO2 140750Z 15002KT 25/18 A2997 RMK A01 T02530177  RH  063%=      5-min Rain = 0
KDO2 140751Z 15002KT 25/18 A2997 RMK A01 T02530177  RH  063%=      5-min Rain = 0
KDO2 140752Z 16003KT 25/18 A2997 RMK A01 T02530176  RH  062%=      5-min Rain = 0
KDO2 140753Z 15003KT 25/18 A2997 RMK A01 T02540176  RH  062%=      5-min Rain = 0
KDO2 140754Z 15003KT 26/18 A2997 RMK A01 T02550177  RH  062%=      5-min Rain = 0
KDO2 140755Z 15003KT 26/18 A2997 RMK A01 T02550176  RH  062%=      5-min Rain = 0
KDO2 140756Z 15003KT 26/18 A2997 RMK A01 T02550176  RH  062%=      5-min Rain = 0
KDO2 140757Z 14003KT 26/18 A2997 RMK A01 T02550176  RH  062%=      5-min Rain = 0
KDO2 140758Z 14003KT 26/18 A2997 RMK A01 T02550177  RH  062%=      5-min Rain = 0
KDO2 140759Z 14003KT 26/18 A2997 RMK A01 T02550177  RH  062%=      5-min Rain = 0
KDO2 140800Z 15003KT 25/18 A2997 RMK A01 T02540177  RH  062%=      5-min Rain = 0
KDO2 140801Z 14003KT 25/18 A2997 RMK A01 T02540176  RH  062%=      5-min Rain = 0
KDO2 140802Z 14003KT 25/18 A2997 RMK A01 T02540176  RH  062%=      5-min Rain = 0
KDO2 140803Z 15003KT 25/18 A2997 RMK A01 T02540176  RH  062%=      5-min Rain = 0
KDO2 140804Z 15003KT 26/18 A2997 RMK A01 T02550177  RH  062%=      5-min Rain = 0
KDO2 140805Z 14003KT 26/18 A2997 RMK A01 T02550176  RH  061%=      5-min Rain = 0
KDO2 140806Z 14003KT 26/18 A2997 RMK A01 T02560176  RH  061%=      5-min Rain = 0
KDO2 140807Z 14003KT 26/18 A2997 RMK A01 T02570176  RH  061%=      5-min Rain = 0
KDO2 140808Z 14003KT 26/18 A2997 RMK A01 T02580176  RH  060%=      5-min Rain = 0
KDO2 140809Z 14004KT 26/18 A2997 RMK A01 T02590175  RH  060%=      5-min Rain = 0
KDO2 140810Z 14004KT 26/18 A2997 RMK A01 T02610176  RH  059%=      5-min Rain = 0
KDO2 140811Z 14004KT 26/18 A2997 RMK A01 T02620176  RH  059%=      5-min Rain = 0
KDO2 140812Z 14004KT 26/18 A2997 RMK A01 T02620175  RH  059%=      5-min Rain = 0
KDO2 140813Z 14004KT 26/18 A2997 RMK A01 T02630175  RH  059%=      5-min Rain = 0
KDO2 140814Z 14003KT 26/18 A2997 RMK A01 T02620175  RH  059%=      5-min Rain = 0
KDO2 140815Z 14003KT 26/18 A2997 RMK A01 T02620175  RH  059%=      5-min Rain = 0
KDO2 140816Z 14003KT 26/18 A2997 RMK A01 T02620175  RH  059%=      5-min Rain = 0
KDO2 140817Z 15003KT 26/18 A2997 RMK A01 T02630175  RH  058%=      5-min Rain = 0
KDO2 140818Z 15003KT 26/17 A2997 RMK A01 T02620174  RH  058%=      5-min Rain = 0
KDO2 140819Z 15004KT 26/17 A2997 RMK A01 T02620174  RH  058%=      5-min Rain = 0
KDO2 140820Z 16003KT 26/17 A2997 RMK A01 T02620174  RH  058%=      5-min Rain = 0
KDO2 140821Z 17003KT 26/18 A2997 RMK A01 T02630176  RH  059%=      5-min Rain = 0
KDO2 140822Z 18003KT 26/18 A2997 RMK A01 T02630175  RH  059%=      5-min Rain = 0
KDO2 140823Z 18003KT 26/18 A2997 RMK A01 T02620176  RH  059%=      5-min Rain = 0
KDO2 140824Z 18004KT 26/18 A2997 RMK A01 T02620176  RH  059%=      5-min Rain = 0
KDO2 140825Z 18004KT 26/18 A2997 RMK A01 T02620176  RH  059%=      5-min Rain = 0
KDO2 140826Z 18004KT 26/18 A2997 RMK A01 T02630176  RH  059%=      5-min Rain = 0
KDO2 140827Z 17004KT 26/18 A2997 RMK A01 T02640176  RH  058%=      5-min Rain = 0
KDO2 140828Z 17005KT 26/18 A2997 RMK A01 T02640175  RH  058%=      5-min Rain = 0
KDO2 140829Z 17006KT 27/18 A2997 RMK A01 T02650175  RH  058%=      5-min Rain = 0
KDO2 140830Z 17006KT 27/18 A2997 RMK A01 T02650175  RH  058%=      5-min Rain = 0
KDO2 140831Z 17005KT 27/18 A2997 RMK A01 T02660175  RH  057%=      5-min Rain = 0
KDO2 140832Z 17005KT 27/18 A2997 RMK A01 T02670175  RH  057%=      5-min Rain = 0
KDO2 140833Z 16005KT 27/18 A2997 RMK A01 T02670175  RH  057%=      5-min Rain = 0
KDO2 140834Z 16005KT 27/18 A2997 RMK A01 T02670175  RH  057%=      5-min Rain = 0
KDO2 140835Z 16005KT 27/18 A2997 RMK A01 T02670175  RH  057%=      5-min Rain = 0
KDO2 140836Z 16005KT 27/18 A2997 RMK A01 T02660175  RH  057%=      5-min Rain = 0
KDO2 140837Z 16005KT 27/18 A2997 RMK A01 T02660175  RH  058%=      5-min Rain = 0
KDO2 140838Z 16005KT 27/18 A2997 RMK A01 T02650175  RH  058%=      5-min Rain = 0
KDO2 140839Z 17005KT 27/18 A2997 RMK A01 T02650175  RH  058%=      5-min Rain = 0
KDO2 140840Z 17004KT 26/18 A2997 RMK A01 T02640175  RH  058%=      5-min Rain = 0
KDO2 140841Z 17004KT 26/18 A2997 RMK A01 T02640175  RH  058%=      5-min Rain = 0
KDO2 140842Z 16004KT 26/18 A2997 RMK A01 T02630175  RH  058%=      5-min Rain = 0
KDO2 140843Z 16004KT 26/18 A2997 RMK A01 T02630175  RH  059%=      5-min Rain = 0
KDO2 140844Z 16004KT 26/18 A2997 RMK A01 T02630176  RH  059%=      5-min Rain = 0
KDO2 140845Z 16003KT 26/18 A2997 RMK A01 T02630176  RH  059%=      5-min Rain = 0
KDO2 140846Z 16002KT 26/18 A2997 RMK A01 T02620176  RH  059%=      5-min Rain = 0
KDO2 140847Z 16001KT 26/18 A2997 RMK A01 T02600175  RH  060%=      5-min Rain = 0
KDO2 140848Z 00000KT 26/18 A2997 RMK A01 T02570175  RH  060%=      5-min Rain = 0
KDO2 140849Z 16001KT 26/17 A2997 RMK A01 T02550174  RH  061%=      5-min Rain = 0
KDO2 140850Z 16002KT 26/18 A2997 RMK A01 T02550175  RH  061%=      5-min Rain = 0
KDO2 140851Z 17001KT 26/18 A2997 RMK A01 T02550175  RH  061%=      5-min Rain = 0
KDO2 140852Z 18001KT 26/18 A2997 RMK A01 T02550176  RH  062%=      5-min Rain = 0
KDO2 140853Z 17002KT 25/18 A2997 RMK A01 T02540176  RH  062%=      5-min Rain = 0
KDO2 140854Z 18002KT 25/17 A2997 RMK A01 T02530174  RH  061%=      5-min Rain = 0
KDO2 140855Z 20002KT 25/18 A2997 RMK A01 T02540175  RH  061%=      5-min Rain = 0
KDO2 140856Z 21002KT 26/18 A2997 RMK A01 T02550175  RH  061%=      5-min Rain = 0
KDO2 140857Z 22001KT 25/18 A2997 RMK A01 T02540175  RH  062%=      5-min Rain = 0
KDO2 140858Z 20002KT 25/18 A2997 RMK A01 T02540176  RH  062%=      5-min Rain = 0
KDO2 140859Z 20002KT 25/18 A2997 RMK A01 T02530176  RH  062%=      5-min Rain = 0
KDO2 140900Z 20002KT 25/18 A2997 RMK A01 T02530177  RH  063%=      5-min Rain = 0
KDO2 140901Z 20002KT 25/18 A2997 RMK A01 T02520177  RH  063%=      5-min Rain = 0
KDO2 140902Z 18002KT 25/18 A2997 RMK A01 T02520177  RH  063%=      5-min Rain = 0
KDO2 140903Z 18001KT 25/18 A2997 RMK A01 T02510176  RH  063%=      5-min Rain = 0
KDO2 140904Z 18001KT 25/18 A2997 RMK A01 T02510176  RH  063%=      5-min Rain = 0
KDO2 140905Z 18001KT 25/18 A2997 RMK A01 T02510176  RH  063%=      5-min Rain = 0
KDO2 140906Z 18000KT 25/18 A2997 RMK A01 T02510175  RH  063%=      5-min Rain = 0
KDO2 140907Z 16001KT 25/17 A2997 RMK A01 T02510174  RH  062%=      5-min Rain = 0
KDO2 140908Z 16000KT 25/17 A2997 RMK A01 T02520173  RH  062%=      5-min Rain = 0
KDO2 140909Z 00000KT 25/17 A2997 RMK A01 T02540173  RH  061%=      5-min Rain = 0
KDO2 140910Z 00000KT 26/17 A2997 RMK A01 T02560173  RH  060%=      5-min Rain = 0
KDO2 140911Z 00000KT 26/17 A2997 RMK A01 T02580174  RH  060%=      5-min Rain = 0
KDO2 140912Z 00000KT 26/17 A2997 RMK A01 T02590174  RH  060%=      5-min Rain = 0
KDO2 140913Z 16001KT 26/18 A2997 RMK A01 T02570175  RH  061%=      5-min Rain = 0
KDO2 140914Z 16001KT 25/18 A2997 RMK A01 T02530175  RH  062%=      5-min Rain = 0
KDO2 140915Z 06001KT 25/18 A2997 RMK A01 T02490175  RH  063%=      5-min Rain = 0
KDO2 140916Z 00002KT 25/18 A2997 RMK A01 T02460175  RH  064%=      5-min Rain = 0
KDO2 140917Z 35003KT 25/18 A2997 RMK A01 T02450175  RH  065%=      5-min Rain = 0
KDO2 140918Z 35002KT 24/18 A2997 RMK A01 T02430175  RH  066%=      5-min Rain = 0
KDO2 140919Z 35002KT 24/17 A2997 RMK A01 T02420174  RH  066%=      5-min Rain = 0
KDO2 140920Z 35002KT 24/18 A2997 RMK A01 T02420175  RH  066%=      5-min Rain = 0
KDO2 140921Z 35002KT 24/18 A2997 RMK A01 T02410175  RH  066%=      5-min Rain = 0
KDO2 140922Z 35002KT 24/18 A2997 RMK A01 T02410175  RH  066%=      5-min Rain = 0
KDO2 140923Z 35002KT 24/18 A2997 RMK A01 T02410175  RH  067%=      5-min Rain = 0
KDO2 140924Z 35002KT 24/18 A2997 RMK A01 T02410175  RH  067%=      5-min Rain = 0
KDO2 140925Z 33003KT 24/18 A2997 RMK A01 T02410175  RH  067%=      5-min Rain = 0
KDO2 140926Z 32003KT 24/18 A2997 RMK A01 T02410175  RH  067%=      5-min Rain = 0
KDO2 140927Z 31003KT 24/18 A2997 RMK A01 T02410176  RH  067%=      5-min Rain = 0
KDO2 140928Z 30003KT 24/18 A2997 RMK A01 T02420176  RH  067%=      5-min Rain = 0
KDO2 140929Z 30003KT 24/18 A2997 RMK A01 T02420176  RH  066%=      5-min Rain = 0
KDO2 140930Z 30003KT 24/18 A2997 RMK A01 T02410176  RH  067%=      5-min Rain = 0
KDO2 140931Z 29003KT 24/18 A2997 RMK A01 T02400175  RH  067%=      5-min Rain = 0
KDO2 140932Z 29004KT 24/18 A2997 RMK A01 T02390176  RH  068%=      5-min Rain = 0
KDO2 140933Z 29004KT 24/18 A2997 RMK A01 T02390175  RH  068%=      5-min Rain = 0
KDO2 140934Z 29005KT 24/18 A2997 RMK A01 T02390175  RH  068%=      5-min Rain = 0
KDO2 140935Z 30005KT 24/18 A2997 RMK A01 T02390176  RH  068%=      5-min Rain = 0
KDO2 140936Z 31005KT 24/18 A2997 RMK A01 T02390176  RH  068%=      5-min Rain = 0
KDO2 140937Z 31005KT 24/18 A2997 RMK A01 T02380176  RH  068%=      5-min Rain = 0
KDO2 140938Z 30005KT 24/18 A2997 RMK A01 T02380176  RH  068%=      5-min Rain = 0
KDO2 140939Z 30005KT 24/18 A2998 RMK A01 T02380176  RH  068%=      5-min Rain = 0
KDO2 140940Z 30005KT 24/18 A2998 RMK A01 T02380176  RH  068%=      5-min Rain = 0
KDO2 140941Z 30006KT 24/18 A2998 RMK A01 T02380177  RH  068%=      5-min Rain = 0
KDO2 140942Z 30006KT 24/18 A2998 RMK A01 T02380177  RH  069%=      5-min Rain = 0
KDO2 140943Z 30006KT 24/18 A2998 RMK A01 T02380177  RH  069%=      5-min Rain = 0
KDO2 140944Z 29006KT 24/18 A2998 RMK A01 T02380177  RH  069%=      5-min Rain = 0
KDO2 140945Z 29006KT 24/18 A2998 RMK A01 T02380177  RH  069%=      5-min Rain = 0
KDO2 140946Z 29006KT 24/18 A2998 RMK A01 T02380177  RH  069%=      5-min Rain = 0
KDO2 140947Z 29005KT 24/18 A2998 RMK A01 T02390177  RH  068%=      5-min Rain = 0
KDO2 140948Z 29005KT 24/18 A2998 RMK A01 T02390177  RH  068%=      5-min Rain = 0
KDO2 140949Z 29005KT 24/18 A2998 RMK A01 T02390177  RH  068%=      5-min Rain = 0
KDO2 140950Z 28005KT 24/18 A2998 RMK A01 T02390177  RH  068%=      5-min Rain = 0
KDO2 140951Z 28005KT 24/18 A2998 RMK A01 T02400177  RH  068%=      5-min Rain = 0
KDO2 140952Z 28004KT 24/18 A2998 RMK A01 T02400177  RH  068%=      5-min Rain = 0
KDO2 140953Z 27004KT 24/18 A2998 RMK A01 T02400177  RH  068%=      5-min Rain = 0
KDO2 140954Z 27004KT 24/18 A2998 RMK A01 T02410177  RH  067%=      5-min Rain = 0
KDO2 140955Z 27003KT 24/18 A2998 RMK A01 T02420177  RH  067%=      5-min Rain = 0
KDO2 140956Z 27003KT 24/18 A2998 RMK A01 T02420177  RH  067%=      5-min Rain = 0
KDO2 140957Z 27002KT 24/18 A2998 RMK A01 T02420177  RH  067%=      5-min Rain = 0
KDO2 140958Z 27003KT 24/18 A2998 RMK A01 T02420177  RH  067%=      5-min Rain = 0
KDO2 140959Z 27002KT 24/18 A2998 RMK A01 T02430177  RH  067%=      5-min Rain = 0
KDO2 141000Z 27002KT 24/18 A2998 RMK A01 T02430177  RH  067%=      5-min Rain = 0
KDO2 141001Z 27001KT 24/18 A2998 RMK A01 T02430180  RH  068%=      5-min Rain = 0
KDO2 141002Z 27001KT 24/18 A2998 RMK A01 T02430178  RH  067%=      5-min Rain = 0
KDO2 141003Z 27001KT 24/18 A2998 RMK A01 T02430178  RH  067%=      5-min Rain = 0
KDO2 141004Z 27001KT 24/18 A2998 RMK A01 T02430178  RH  067%=      5-min Rain = 0
KDO2 141005Z 27000KT 24/18 A2998 RMK A01 T02440178  RH  067%=      5-min Rain = 0
KDO2 141006Z 00000KT 24/18 A2998 RMK A01 T02430178  RH  067%=      5-min Rain = 0
KDO2 141007Z 00000KT 24/18 A2998 RMK A01 T02430178  RH  067%=      5-min Rain = 0
KDO2 141008Z 00000KT 24/18 A2998 RMK A01 T02430178  RH  067%=      5-min Rain = 0
KDO2 141009Z 00000KT 24/18 A2998 RMK A01 T02430178  RH  067%=      5-min Rain = 0
KDO2 141010Z 00000KT 24/18 A2998 RMK A01 T02430179  RH  067%=      5-min Rain = 0
KDO2 141011Z 00000KT 24/18 A2998 RMK A01 T02430181  RH  068%=      5-min Rain = 0
KDO2 141012Z 00000KT 24/18 A2998 RMK A01 T02420180  RH  068%=      5-min Rain = 0
KDO2 141013Z 00000KT 24/18 A2998 RMK A01 T02420181  RH  069%=      5-min Rain = 0
KDO2 141014Z 00000KT 24/18 A2998 RMK A01 T02410181  RH  069%=      5-min Rain = 0
KDO2 141015Z 00000KT 24/18 A2998 RMK A01 T02410180  RH  069%=      5-min Rain = 0
KDO2 141016Z 27000KT 24/18 A2998 RMK A01 T02410179  RH  068%=      5-min Rain = 0
KDO2 141017Z 27000KT 24/18 A2998 RMK A01 T02410180  RH  069%=      5-min Rain = 0
KDO2 141018Z 00000KT 24/18 A2998 RMK A01 T02410181  RH  069%=      5-min Rain = 0
KDO2 141019Z 00000KT 24/18 A2998 RMK A01 T02400180  RH  069%=      5-min Rain = 0
KDO2 141020Z 00000KT 24/18 A2998 RMK A01 T02410181  RH  069%=      5-min Rain = 0
KDO2 141021Z 00000KT 24/18 A2998 RMK A01 T02400180  RH  069%=      5-min Rain = 0
KDO2 141022Z 25000KT 24/18 A2998 RMK A01 T02400179  RH  068%=      5-min Rain = 0
KDO2 141023Z 26000KT 24/18 A2999 RMK A01 T02410179  RH  068%=      5-min Rain = 0
KDO2 141024Z 27002KT 24/18 A2999 RMK A01 T02410178  RH  068%=      5-min Rain = 0
KDO2 141025Z 27001KT 24/18 A2999 RMK A01 T02420178  RH  067%=      5-min Rain = 0
KDO2 141026Z 27000KT 24/18 A2999 RMK A01 T02430178  RH  067%=      5-min Rain = 0
KDO2 141027Z 27000KT 24/18 A2999 RMK A01 T02440179  RH  067%=      5-min Rain = 0
KDO2 141028Z 27001KT 24/18 A2999 RMK A01 T02440178  RH  067%=      5-min Rain = 0
KDO2 141029Z 29001KT 24/18 A2999 RMK A01 T02440180  RH  068%=      5-min Rain = 0
KDO2 141030Z 30001KT 24/18 A2999 RMK A01 T02440179  RH  067%=      5-min Rain = 0
KDO2 141031Z 32002KT 24/18 A2999 RMK A01 T02430179  RH  067%=      5-min Rain = 0
KDO2 141032Z 32002KT 24/18 A2999 RMK A01 T02430179  RH  067%=      5-min Rain = 0
KDO2 141033Z 32001KT 24/18 A2999 RMK A01 T02400178  RH  068%=      5-min Rain = 0
KDO2 141034Z 32001KT 24/18 A2999 RMK A01 T02380178  RH  069%=      5-min Rain = 0
KDO2 141035Z 32000KT 24/18 A2999 RMK A01 T02360177  RH  069%=      5-min Rain = 0
KDO2 141036Z 32000KT 24/18 A2999 RMK A01 T02350177  RH  070%=      5-min Rain = 0
KDO2 141037Z 00000KT 24/18 A2999 RMK A01 T02350177  RH  070%=      5-min Rain = 0
KDO2 141038Z 00000KT 23/18 A2999 RMK A01 T02340177  RH  070%=      5-min Rain = 0
KDO2 141039Z 00000KT 23/18 A2999 RMK A01 T02340177  RH  070%=      5-min Rain = 0
KDO2 141040Z 00000KT 23/18 A2999 RMK A01 T02340177  RH  071%=      5-min Rain = 0
KDO2 141041Z 00000KT 23/18 A2999 RMK A01 T02330177  RH  071%=      5-min Rain = 0
KDO2 141042Z 00000KT 23/18 A2999 RMK A01 T02340178  RH  071%=      5-min Rain = 0
KDO2 141043Z 00000KT 23/18 A2999 RMK A01 T02340177  RH  071%=      5-min Rain = 0
KDO2 141044Z 00000KT 23/18 A2999 RMK A01 T02340177  RH  070%=      5-min Rain = 0
KDO2 141045Z 08001KT 24/18 A2999 RMK A01 T02350177  RH  070%=      5-min Rain = 0
KDO2 141046Z 08002KT 24/18 A2999 RMK A01 T02360178  RH  070%=      5-min Rain = 0
KDO2 141047Z 08002KT 24/18 A2999 RMK A01 T02360179  RH  070%=      5-min Rain = 0
KDO2 141048Z 08001KT 24/18 A2999 RMK A01 T02360178  RH  070%=      5-min Rain = 0
KDO2 141049Z 08001KT 24/18 A2999 RMK A01 T02370180  RH  070%=      5-min Rain = 0
KDO2 141050Z 08001KT 24/18 A2999 RMK A01 T02360179  RH  070%=      5-min Rain = 0
KDO2 141051Z 08002KT 24/18 A2999 RMK A01 T02360179  RH  070%=      5-min Rain = 0
KDO2 141052Z 08002KT 24/18 A2999 RMK A01 T02370179  RH  070%=      5-min Rain = 0
KDO2 141053Z 09002KT 24/18 A2999 RMK A01 T02370179  RH  070%=      5-min Rain = 0
KDO2 141054Z 10002KT 24/18 A2999 RMK A01 T02380179  RH  070%=      5-min Rain = 0
KDO2 141055Z 10002KT 24/18 A2999 RMK A01 T02380179  RH  069%=      5-min Rain = 0
KDO2 141056Z 10002KT 24/18 A2999 RMK A01 T02380179  RH  069%=      5-min Rain = 0
KDO2 141057Z 10002KT 24/18 A2999 RMK A01 T02390180  RH  069%=      5-min Rain = 0
KDO2 141058Z 10001KT 24/18 A2999 RMK A01 T02390181  RH  070%=      5-min Rain = 0
KDO2 141059Z 10001KT 24/18 A2999 RMK A01 T02380180  RH  070%=      5-min Rain = 0
KDO2 141100Z 10001KT 24/18 A2999 RMK A01 T02370179  RH  070%=      5-min Rain = 0
KDO2 141101Z 10001KT 24/18 A2999 RMK A01 T02370179  RH  070%=      5-min Rain = 0
KDO2 141102Z 10001KT 24/18 A2999 RMK A01 T02360179  RH  070%=      5-min Rain = 0
KDO2 141103Z 10001KT 24/18 A2999 RMK A01 T02360179  RH  070%=      5-min Rain = 0
KDO2 141104Z 10002KT 24/18 A2999 RMK A01 T02370178  RH  070%=      5-min Rain = 0
KDO2 141105Z 11002KT 24/18 A2999 RMK A01 T02380179  RH  070%=      5-min Rain = 0
KDO2 141106Z 12002KT 24/18 A2999 RMK A01 T02390181  RH  070%=      5-min Rain = 0
KDO2 141107Z 12002KT 24/18 A2999 RMK A01 T02380181  RH  070%=      5-min Rain = 0
KDO2 141108Z 12002KT 24/18 A2999 RMK A01 T02390182  RH  070%=      5-min Rain = 0
KDO2 141109Z 12002KT 24/18 A2999 RMK A01 T02380182  RH  071%=      5-min Rain = 0
KDO2 141110Z 12002KT 24/18 A2999 RMK A01 T02380181  RH  071%=      5-min Rain = 0
KDO2 141111Z 12001KT 24/18 A2999 RMK A01 T02370182  RH  071%=      5-min Rain = 0
KDO2 141112Z 12001KT 24/18 A2999 RMK A01 T02370181  RH  071%=      5-min Rain = 0
KDO2 141113Z 12001KT 24/18 A2999 RMK A01 T02370182  RH  071%=      5-min Rain = 0
KDO2 141114Z 12001KT 24/18 A30 RMK A01 T02370181  RH  071%=      5-min Rain = 0
KDO2 141115Z 12001KT 24/18 A30 RMK A01 T02370182  RH  071%=      5-min Rain = 0
KDO2 141116Z 12001KT 24/18 A30 RMK A01 T02370181  RH  071%=      5-min Rain = 0
KDO2 141117Z 12002KT 24/18 A30 RMK A01 T02370181  RH  071%=      5-min Rain = 0
KDO2 141118Z 12002KT 24/18 A30 RMK A01 T02370181  RH  071%=      5-min Rain = 0
KDO2 141119Z 12002KT 24/18 A30 RMK A01 T02370181  RH  071%=      5-min Rain = 0
KDO2 141120Z 12002KT 24/18 A30 RMK A01 T02370182  RH  071%=      5-min Rain = 0
KDO2 141121Z 12002KT 24/18 A30 RMK A01 T02370182  RH  071%=      5-min Rain = 0
KDO2 141122Z 12002KT 24/18 A30 RMK A01 T02370181  RH  071%=      5-min Rain = 0
KDO2 141123Z 12002KT 24/18 A30 RMK A01 T02370181  RH  071%=      5-min Rain = 0
KDO2 141124Z 12001KT 24/18 A30 RMK A01 T02370181  RH  071%=      5-min Rain = 0
KDO2 141125Z 12000KT 24/18 A30 RMK A01 T02370181  RH  071%=      5-min Rain = 0
KDO2 141126Z 20001KT 24/18 A30 RMK A01 T02360183  RH  072%=      5-min Rain = 0
KDO2 141127Z 20001KT 23/18 A30 RMK A01 T02340182  RH  073%=      5-min Rain = 0
KDO2 141128Z 20000KT 23/18 A30 RMK A01 T02330181  RH  073%=      5-min Rain = 0
KDO2 141129Z 00000KT 23/18 A30 RMK A01 T02330181  RH  072%=      5-min Rain = 0
KDO2 141130Z 00000KT 23/18 A30 RMK A01 T02330179  RH  072%=      5-min Rain = 0
KDO2 141131Z 00000KT 23/18 A30 RMK A01 T02340179  RH  071%=      5-min Rain = 0
KDO2 141132Z 00000KT 24/18 A30 RMK A01 T02350180  RH  071%=      5-min Rain = 0
KDO2 141133Z 00000KT 24/18 A30 RMK A01 T02350181  RH  072%=      5-min Rain = 0
KDO2 141134Z 00000KT 24/18 A30 RMK A01 T02350182  RH  072%=      5-min Rain = 0
KDO2 141135Z 00000KT 24/18 A30 RMK A01 T02350181  RH  072%=      5-min Rain = 0
KDO2 141136Z 00000KT 24/18 A30 RMK A01 T02350182  RH  072%=      5-min Rain = 0
KDO2 141137Z 00000KT 23/18 A30 RMK A01 T02340181  RH  072%=      5-min Rain = 0
KDO2 141138Z 00000KT 23/18 A30 RMK A01 T02340181  RH  072%=      5-min Rain = 0
KDO2 141139Z 00000KT 24/18 A30 RMK A01 T02350181  RH  072%=      5-min Rain = 0
KDO2 141140Z 00000KT 24/18 A30 RMK A01 T02350181  RH  072%=      5-min Rain = 0
KDO2 141141Z 20000KT 24/18 A30 RMK A01 T02350181  RH  072%=      5-min Rain = 0
KDO2 141142Z 20001KT 24/18 A30 RMK A01 T02350181  RH  071%=      5-min Rain = 0
KDO2 141143Z 13002KT 24/18 A30 RMK A01 T02350181  RH  072%=      5-min Rain = 0
KDO2 141144Z 13003KT 24/18 A30 RMK A01 T02350181  RH  072%=      5-min Rain = 0
KDO2 141145Z 13003KT 23/18 A30 RMK A01 T02340181  RH  072%=      5-min Rain = 0
KDO2 141146Z 13003KT 24/18 A30 RMK A01 T02350181  RH  072%=      5-min Rain = 0
KDO2 141147Z 13003KT 24/18 A30 RMK A01 T02350181  RH  072%=      5-min Rain = 0
KDO2 141148Z 13002KT 24/18 A30 RMK A01 T02350180  RH  071%=      5-min Rain = 0
KDO2 141149Z 13003KT 23/18 A30 RMK A01 T02340180  RH  071%=      5-min Rain = 0
KDO2 141150Z 13003KT 23/18 A3001 RMK A01 T02340179  RH  071%=      5-min Rain = 0
KDO2 141151Z 13002KT 23/18 A3001 RMK A01 T02340179  RH  071%=      5-min Rain = 0
KDO2 141152Z 13002KT 24/18 A3001 RMK A01 T02350180  RH  071%=      5-min Rain = 0
KDO2 141153Z 12002KT 24/18 A3001 RMK A01 T02350180  RH  071%=      5-min Rain = 0
KDO2 141154Z 11003KT 24/18 A3001 RMK A01 T02350179  RH  071%=      5-min Rain = 0
KDO2 141155Z 11003KT 24/18 A3001 RMK A01 T02350179  RH  071%=      5-min Rain = 0
KDO2 141156Z 11003KT 24/18 A3001 RMK A01 T02360179  RH  071%=      5-min Rain = 0
KDO2 141157Z 11002KT 24/18 A3001 RMK A01 T02360179  RH  070%=      5-min Rain = 0
KDO2 141158Z 11001KT 24/18 A3001 RMK A01 T02360180  RH  071%=      5-min Rain = 0
KDO2 141159Z 11000KT 24/18 A3001 RMK A01 T02350181  RH  072%=      5-min Rain = 0
KDO2 141200Z 11000KT 23/18 A3001 RMK A01 T02340180  RH  072%=      5-min Rain = 0
KDO2 141201Z 11001KT 23/18 A3001 RMK A01 T02330179  RH  071%=      5-min Rain = 0
KDO2 141202Z 11002KT 23/18 A3001 RMK A01 T02330179  RH  071%=      5-min Rain = 0
KDO2 141203Z 09002KT 23/18 A3001 RMK A01 T02330179  RH  071%=      5-min Rain = 0
KDO2 141204Z 09002KT 23/18 A3001 RMK A01 T02340179  RH  071%=      5-min Rain = 0
KDO2 141205Z 09003KT 23/18 A3001 RMK A01 T02340179  RH  071%=      5-min Rain = 0
KDO2 141206Z 09003KT 23/18 A3001 RMK A01 T02340179  RH  071%=      5-min Rain = 0
KDO2 141207Z 10003KT 24/18 A3001 RMK A01 T02350181  RH  071%=      5-min Rain = 0
KDO2 141208Z 10002KT 24/18 A3001 RMK A01 T02350183  RH  072%=      5-min Rain = 0
KDO2 141209Z 11003KT 24/18 A3001 RMK A01 T02360182  RH  072%=      5-min Rain = 0
KDO2 141210Z 11003KT 24/18 A3001 RMK A01 T02350181  RH  072%=      5-min Rain = 0
KDO2 141211Z 11003KT 24/18 A3001 RMK A01 T02360181  RH  071%=      5-min Rain = 0
KDO2 141212Z 12003KT 24/18 A3001 RMK A01 T02360181  RH  071%=      5-min Rain = 0
KDO2 141213Z 12003KT 24/18 A3001 RMK A01 T02370182  RH  072%=      5-min Rain = 0
KDO2 141214Z 11003KT 24/18 A3001 RMK A01 T02370182  RH  071%=      5-min Rain = 0
KDO2 141215Z 11003KT 24/18 A3001 RMK A01 T02370182  RH  071%=      5-min Rain = 0
KDO2 141216Z 11003KT 24/18 A3001 RMK A01 T02380183  RH  071%=      5-min Rain = 0
KDO2 141217Z 12003KT 24/18 A3001 RMK A01 T02390184  RH  071%=      5-min Rain = 0
KDO2 141218Z 12002KT 24/18 A3001 RMK A01 T02390184  RH  071%=      5-min Rain = 0
KDO2 141219Z 12002KT 24/18 A3001 RMK A01 T02390184  RH  071%=      5-min Rain = 0
KDO2 141220Z 12002KT 24/18 A3001 RMK A01 T02390184  RH  071%=      5-min Rain = 0
KDO2 141221Z 12002KT 24/18 A3001 RMK A01 T02390184  RH  071%=      5-min Rain = 0
KDO2 141222Z 12002KT 24/19 A3001 RMK A01 T02400185  RH  071%=      5-min Rain = 0
KDO2 141223Z 12002KT 24/18 A3001 RMK A01 T02400184  RH  071%=      5-min Rain = 0
KDO2 141224Z 12002KT 24/19 A3001 RMK A01 T02400185  RH  071%=      5-min Rain = 0
KDO2 141225Z 12002KT 24/19 A3001 RMK A01 T02410185  RH  071%=      5-min Rain = 0
KDO2 141226Z 13001KT 24/19 A3001 RMK A01 T02420185  RH  071%=      5-min Rain = 0
KDO2 141227Z 13002KT 24/19 A3001 RMK A01 T02420185  RH  071%=      5-min Rain = 0
KDO2 141228Z 13002KT 24/19 A3001 RMK A01 T02420185  RH  070%=      5-min Rain = 0
KDO2 141229Z 13002KT 24/19 A3001 RMK A01 T02420185  RH  070%=      5-min Rain = 0
KDO2 141230Z 12003KT 24/19 A3001 RMK A01 T02430185  RH  070%=      5-min Rain = 0
KDO2 141231Z 13003KT 24/19 A3001 RMK A01 T02430185  RH  070%=      5-min Rain = 0
KDO2 141232Z 14003KT 24/19 A3001 RMK A01 T02430185  RH  070%=      5-min Rain = 0
KDO2 141233Z 13003KT 24/19 A3002 RMK A01 T02440186  RH  070%=      5-min Rain = 0
KDO2 141234Z 13003KT 24/19 A3002 RMK A01 T02440186  RH  070%=      5-min Rain = 0
KDO2 141235Z 14003KT 24/19 A3002 RMK A01 T02440187  RH  070%=      5-min Rain = 0
KDO2 141236Z 14003KT 24/19 A3002 RMK A01 T02440187  RH  070%=      5-min Rain = 0
KDO2 141237Z 14002KT 25/19 A3002 RMK A01 T02450188  RH  070%=      5-min Rain = 0
KDO2 141238Z 13002KT 25/19 A3002 RMK A01 T02450188  RH  071%=      5-min Rain = 0
KDO2 141239Z 14002KT 25/19 A3002 RMK A01 T02460188  RH  070%=      5-min Rain = 0
KDO2 141240Z 15002KT 25/19 A3002 RMK A01 T02460188  RH  070%=      5-min Rain = 0
KDO2 141241Z 14002KT 25/19 A3002 RMK A01 T02460188  RH  070%=      5-min Rain = 0
KDO2 141242Z 15002KT 25/19 A3002 RMK A01 T02470188  RH  070%=      5-min Rain = 0
KDO2 141243Z 15002KT 25/19 A3002 RMK A01 T02470188  RH  069%=      5-min Rain = 0
KDO2 141244Z 15002KT 25/19 A3002 RMK A01 T02480188  RH  069%=      5-min Rain = 0
KDO2 141245Z 16002KT 25/19 A3002 RMK A01 T02480188  RH  069%=      5-min Rain = 0
KDO2 141246Z 15002KT 25/19 A3002 RMK A01 T02480189  RH  070%=      5-min Rain = 0
KDO2 141247Z 15002KT 25/19 A3002 RMK A01 T02490188  RH  069%=      5-min Rain = 0
KDO2 141248Z 15002KT 25/19 A3002 RMK A01 T02490188  RH  069%=      5-min Rain = 0
KDO2 141249Z 14002KT 25/19 A3002 RMK A01 T02490190  RH  069%=      5-min Rain = 0
KDO2 141250Z 14002KT 25/19 A3002 RMK A01 T02500190  RH  069%=      5-min Rain = 0
KDO2 141251Z 14002KT 25/19 A3002 RMK A01 T02500191  RH  070%=      5-min Rain = 0
KDO2 141252Z 14003KT 25/19 A3002 RMK A01 T02500191  RH  069%=      5-min Rain = 0
KDO2 141253Z 14003KT 25/19 A3002 RMK A01 T02510190  RH  069%=      5-min Rain = 0
KDO2 141254Z 14003KT 25/19 A3002 RMK A01 T02510192  RH  070%=      5-min Rain = 0
KDO2 141255Z 14003KT 25/19 A3002 RMK A01 T02510192  RH  070%=      5-min Rain = 0
KDO2 141256Z 14003KT 25/19 A3002 RMK A01 T02510193  RH  070%=      5-min Rain = 0
KDO2 141257Z 14004KT 25/19 A3002 RMK A01 T02510193  RH  070%=      5-min Rain = 0
KDO2 141258Z 14004KT 25/19 A3002 RMK A01 T02510194  RH  071%=      5-min Rain = 0
KDO2 141259Z 14004KT 25/19 A3002 RMK A01 T02500193  RH  070%=      5-min Rain = 0
KDO2 141300Z 15004KT 25/19 A3002 RMK A01 T02510193  RH  070%=      5-min Rain = 0
KDO2 141301Z 15005KT 25/19 A3002 RMK A01 T02510193  RH  070%=      5-min Rain = 0
KDO2 141302Z 15005KT 25/19 A3002 RMK A01 T02510193  RH  070%=      5-min Rain = 0
KDO2 141303Z 15005KT 25/19 A3002 RMK A01 T02510193  RH  070%=      5-min Rain = 0
KDO2 141304Z 15005KT 25/19 A3002 RMK A01 T02510193  RH  070%=      5-min Rain = 0
KDO2 141305Z 14005KT 25/19 A3002 RMK A01 T02510193  RH  070%=      5-min Rain = 0
KDO2 141306Z 14005KT 25/19 A3002 RMK A01 T02520194  RH  070%=      5-min Rain = 0
KDO2 141307Z 14005KT 25/19 A3002 RMK A01 T02530194  RH  070%=      5-min Rain = 0
KDO2 141308Z 14006KT 25/19 A3002 RMK A01 T02530194  RH  070%=      5-min Rain = 0
KDO2 141309Z 14006KT 25/19 A3002 RMK A01 T02540194  RH  069%=      5-min Rain = 0
KDO2 141310Z 14006KT 26/19 A3002 RMK A01 T02550194  RH  069%=      5-min Rain = 0
KDO2 141311Z 14006KT 26/20 A3002 RMK A01 T02570195  RH  069%=      5-min Rain = 0
KDO2 141312Z 15005KT 26/20 A3002 RMK A01 T02580196  RH  069%=      5-min Rain = 0
KDO2 141313Z 15005KT 26/20 A3002 RMK A01 T02580197  RH  069%=      5-min Rain = 0
KDO2 141314Z 14005KT 26/20 A3002 RMK A01 T02590197  RH  068%=      5-min Rain = 0
KDO2 141315Z 14005KT 26/20 A3002 RMK A01 T02590197  RH  068%=      5-min Rain = 0
KDO2 141316Z 14006KT 26/20 A3002 RMK A01 T02600196  RH  068%=      5-min Rain = 0
KDO2 141317Z 15005KT 26/20 A3002 RMK A01 T02610197  RH  068%=      5-min Rain = 0
KDO2 141318Z 15006KT 26/20 A3002 RMK A01 T02620197  RH  067%=      5-min Rain = 0
KDO2 141319Z 15005KT 26/20 A3002 RMK A01 T02620196  RH  067%=      5-min Rain = 0
KDO2 141320Z 14005KT 26/20 A3002 RMK A01 T02620198  RH  067%=      5-min Rain = 0
KDO2 141321Z 14005KT 26/20 A3002 RMK A01 T02630197  RH  067%=      5-min Rain = 0
KDO2 141322Z 14005KT 26/20 A3002 RMK A01 T02630198  RH  067%=      5-min Rain = 0
KDO2 141323Z 14005KT 26/20 A3002 RMK A01 T02630198  RH  067%=      5-min Rain = 0
KDO2 141324Z 14005KT 26/20 A3002 RMK A01 T02630197  RH  067%=      5-min Rain = 0
KDO2 141325Z 13005KT 26/20 A3002 RMK A01 T02640197  RH  067%=      5-min Rain = 0
KDO2 141326Z 14005KT 26/20 A3002 RMK A01 T02640199  RH  067%=      5-min Rain = 0
KDO2 141327Z 13005KT 27/20 A3002 RMK A01 T02650199  RH  067%=      5-min Rain = 0
KDO2 141328Z 13004KT 27/20 A3002 RMK A01 T02650199  RH  067%=      5-min Rain = 0
KDO2 141329Z 14005KT 27/20 A3002 RMK A01 T02660201  RH  067%=      5-min Rain = 0
KDO2 141330Z 14005KT 27/20 A3002 RMK A01 T02670201  RH  067%=      5-min Rain = 0
KDO2 141331Z 14005KT 27/20 A3002 RMK A01 T02680201  RH  067%=      5-min Rain = 0
KDO2 141332Z 14005KT 27/20 A3002 RMK A01 T02690202  RH  067%=      5-min Rain = 0
KDO2 141333Z 14006KT 27/20 A3002 RMK A01 T02690202  RH  067%=      5-min Rain = 0
KDO2 141334Z 14006KT 27/20 A3002 RMK A01 T02700201  RH  066%=      5-min Rain = 0
KDO2 141335Z 14007KT 27/20 A3002 RMK A01 T02700200  RH  066%=      5-min Rain = 0
KDO2 141336Z 14006KT 27/20 A3002 RMK A01 T02710201  RH  065%=      5-min Rain = 0
KDO2 141337Z 13006KT 27/20 A3002 RMK A01 T02710201  RH  065%=      5-min Rain = 0
KDO2 141338Z 14007KT 27/20 A3002 RMK A01 T02710201  RH  065%=      5-min Rain = 0
KDO2 141339Z 14006KT 27/20 A3002 RMK A01 T02710200  RH  065%=      5-min Rain = 0
KDO2 141340Z 14006KT 27/20 A3002 RMK A01 T02710202  RH  066%=      5-min Rain = 0
KDO2 141341Z 14006KT 27/20 A3002 RMK A01 T02710201  RH  065%=      5-min Rain = 0
KDO2 141342Z 14006KT 27/20 A3002 RMK A01 T02710203  RH  066%=      5-min Rain = 0
KDO2 141343Z 14006KT 27/20 A3002 RMK A01 T02710203  RH  066%=      5-min Rain = 0
KDO2 141344Z 14007KT 27/20 A3002 RMK A01 T02710202  RH  066%=      5-min Rain = 0
KDO2 141345Z 14007KT 27/20 A3002 RMK A01 T02720202  RH  066%=      5-min Rain = 0
KDO2 141346Z 14007KT 27/20 A3002 RMK A01 T02730203  RH  065%=      5-min Rain = 0
KDO2 141347Z 14006KT 27/20 A3002 RMK A01 T02740204  RH  065%=      5-min Rain = 0
KDO2 141348Z 14007KT 28/21 A3002 RMK A01 T02760205  RH  065%=      5-min Rain = 0
KDO2 141349Z 14007KT 28/20 A3002 RMK A01 T02770204  RH  064%=      5-min Rain = 0
KDO2 141350Z 14007KT 28/21 A3003 RMK A01 T02770205  RH  065%=      5-min Rain = 0
KDO2 141351Z 14007KT 28/20 A3003 RMK A01 T02780204  RH  064%=      5-min Rain = 0
KDO2 141352Z 13007KT 28/20 A3003 RMK A01 T02770204  RH  064%=      5-min Rain = 0
KDO2 141353Z 14006KT 28/20 A3003 RMK A01 T02780204  RH  064%=      5-min Rain = 0
KDO2 141354Z 13006KT 28/21 A3003 RMK A01 T02780205  RH  065%=      5-min Rain = 0
KDO2 141355Z 13005KT 28/20 A3003 RMK A01 T02780204  RH  064%=      5-min Rain = 0
KDO2 141356Z 13006KT 28/21 A3003 RMK A01 T02800206  RH  064%=      5-min Rain = 0
KDO2 141357Z 14005KT 28/21 A3003 RMK A01 T02810207  RH  064%=      5-min Rain = 0
KDO2 141358Z 13006KT 28/21 A3003 RMK A01 T02830206  RH  063%=      5-min Rain = 0
KDO2 141359Z 13005KT 28/20 A3003 RMK A01 T02840204  RH  062%=      5-min Rain = 0
KDO2 141400Z 13004KT 29/21 A3003 RMK A01 T02850207  RH  063%=      5-min Rain = 0
KDO2 141401Z 13004KT 29/21 A3003 RMK A01 T02860209  RH  063%=      5-min Rain = 0
KDO2 141402Z 13005KT 29/20 A3003 RMK A01 T02870204  RH  061%=      5-min Rain = 0
KDO2 141403Z 12005KT 29/21 A3003 RMK A01 T02880206  RH  061%=      5-min Rain = 0
KDO2 141404Z 12005KT 29/21 A3003 RMK A01 T02880206  RH  061%=      5-min Rain = 0
KDO2 141405Z 12004KT 29/21 A3003 RMK A01 T02890208  RH  062%=      5-min Rain = 0
KDO2 141406Z 13004KT 29/21 A3003 RMK A01 T02890210  RH  062%=      5-min Rain = 0
KDO2 141407Z 14005KT 29/21 A3003 RMK A01 T02900209  RH  062%=      5-min Rain = 0
KDO2 141408Z 13005KT 29/21 A3003 RMK A01 T02900206  RH  061%=      5-min Rain = 0
KDO2 141409Z 14005KT 29/21 A3003 RMK A01 T02890209  RH  062%=      5-min Rain = 0
KDO2 141410Z 15007KT 29/21 A3003 RMK A01 T02890210  RH  062%=      5-min Rain = 0
KDO2 141411Z 14008KT 29/20 A3003 RMK A01 T02890203  RH  060%=      5-min Rain = 0
KDO2 141412Z 14008KT 29/20 A3003 RMK A01 T02890202  RH  059%=      5-min Rain = 0
KDO2 141413Z 15007KT 29/20 A3003 RMK A01 T02900204  RH  060%=      5-min Rain = 0
KDO2 141414Z 15008KT 29/20 A3003 RMK A01 T02900203  RH  059%=      5-min Rain = 0
KDO2 141415Z 14008KT 29/20 A3003 RMK A01 T02910204  RH  059%=      5-min Rain = 0
KDO2 141416Z 14008KT 29/20 A3003 RMK A01 T02910202  RH  059%=      5-min Rain = 0
KDO2 141417Z 14007KT 29/20 A3003 RMK A01 T02910201  RH  058%=      5-min Rain = 0
KDO2 141418Z 14006KT 29/21 A3003 RMK A01 T02910205  RH  060%=      5-min Rain = 0
KDO2 141419Z 13007KT 29/21 A3003 RMK A01 T02900205  RH  060%=      5-min Rain = 0
KDO2 141420Z 13006KT 29/20 A3003 RMK A01 T02900203  RH  059%=      5-min Rain = 0
KDO2 141421Z 13006KT 29/20 A3003 RMK A01 T02890204  RH  060%=      5-min Rain = 0
KDO2 141422Z 13007KT 29/20 A3003 RMK A01 T02890204  RH  060%=      5-min Rain = 0
KDO2 141423Z 13005KT 29/20 A3003 RMK A01 T02900204  RH  060%=      5-min Rain = 0
KDO2 141424Z 13006KT 29/20 A3003 RMK A01 T02900201  RH  059%=      5-min Rain = 0
KDO2 141425Z 12005KT 29/20 A3003 RMK A01 T02910199  RH  058%=      5-min Rain = 0
KDO2 141426Z 13003KT 29/20 A3003 RMK A01 T02920201  RH  058%=      5-min Rain = 0
KDO2 141427Z 14004KT 29/20 A3003 RMK A01 T02940204  RH  058%=      5-min Rain = 0
KDO2 141428Z 15004KT 30/20 A3003 RMK A01 T02960201  RH  057%=      5-min Rain = 0
KDO2 141429Z 15004KT 30/20 A3004 RMK A01 T02970201  RH  057%=      5-min Rain = 0
KDO2 141430Z 15004KT 30/20 A3004 RMK A01 T02970202  RH  056%=      5-min Rain = 0
KDO2 141431Z 14004KT 30/20 A3004 RMK A01 T02970201  RH  056%=      5-min Rain = 0
KDO2 141432Z 15004KT 30/20 A3004 RMK A01 T02960198  RH  055%=      5-min Rain = 0
KDO2 141433Z 14003KT 30/20 A3004 RMK A01 T02950201  RH  057%=      5-min Rain = 0
KDO2 141434Z 13003KT 30/20 A3004 RMK A01 T02950199  RH  056%=      5-min Rain = 0
KDO2 141435Z 12001KT 30/20 A3004 RMK A01 T02950197  RH  056%=      5-min Rain = 0
KDO2 141436Z 09001KT 30/20 A3004 RMK A01 T02950197  RH  055%=      5-min Rain = 0
KDO2 141437Z 08002KT 30/20 A3004 RMK A01 T02960200  RH  056%=      5-min Rain = 0
KDO2 141438Z 07002KT 30/20 A3004 RMK A01 T02960198  RH  055%=      5-min Rain = 0
KDO2 141439Z 05002KT 30/20 A3004 RMK A01 T02970197  RH  055%=      5-min Rain = 0
KDO2 141440Z 06003KT 30/20 A3004 RMK A01 T02960203  RH  057%=      5-min Rain = 0
KDO2 141441Z 05005KT 30/21 A3005 RMK A01 T02960206  RH  059%=      5-min Rain = 0
KDO2 141442Z 03005KT 30/21 A3005 RMK A01 T02950212  RH  061%=      5-min Rain = 0
KDO2 141443Z 03005KT 30/21 A3005 RMK A01 T02950214  RH  062%=      5-min Rain = 0
KDO2 141444Z 03005KT 30/21 A3005 RMK A01 T02950214  RH  062%=      5-min Rain = 0
KDO2 141445Z 04006KT 29/21 A3005 RMK A01 T02940214  RH  062%=      5-min Rain = 0
KDO2 141446Z 03006KT 29/21 A3005 RMK A01 T02940211  RH  061%=      5-min Rain = 0
KDO2 141447Z 04007KT 29/21 A3005 RMK A01 T02940208  RH  060%=      5-min Rain = 0
KDO2 141448Z 04006KT 29/21 A3005 RMK A01 T02940205  RH  059%=      5-min Rain = 0
KDO2 141449Z 03007KT 29/21 A3005 RMK A01 T02940207  RH  059%=      5-min Rain = 0
KDO2 141450Z 03006KT 29/21 A3005 RMK A01 T02940209  RH  060%=      5-min Rain = 0
KDO2 141451Z 03006KT 30/21 A3005 RMK A01 T02950205  RH  058%=      5-min Rain = 0
KDO2 141452Z 03006KT 29/21 A3005 RMK A01 T02940206  RH  059%=      5-min Rain = 0
KDO2 141453Z 03006KT 29/21 A3005 RMK A01 T02940205  RH  059%=      5-min Rain = 0
KDO2 141454Z 02006KT 29/21 A3005 RMK A01 T02940207  RH  060%=      5-min Rain = 0
KDO2 141455Z 03006KT 29/21 A3005 RMK A01 T02930208  RH  060%=      5-min Rain = 0
KDO2 141456Z 03006KT 29/21 A3005 RMK A01 T02930209  RH  060%=      5-min Rain = 0
KDO2 141457Z 03007KT 29/21 A3005 RMK A01 T02930212  RH  062%=      5-min Rain = 0
KDO2 141458Z 03005KT 29/21 A3005 RMK A01 T02930206  RH  059%=      5-min Rain = 0
KDO2 141459Z 03005KT 29/21 A3005 RMK A01 T02930209  RH  061%=      5-min Rain = 0
KDO2 141500Z 04005KT 29/21 A3006 RMK A01 T02930210  RH  061%=      5-min Rain = 0
KDO2 141501Z 04007KT 30/21 A3006 RMK A01 T02950209  RH  060%=      5-min Rain = 0
KDO2 141502Z 04008KT 30/21 A3006 RMK A01 T02960207  RH  059%=      5-min Rain = 0
KDO2 141503Z 04008KT 30/21 A3006 RMK A01 T02970210  RH  059%=      5-min Rain = 0
KDO2 141504Z 04007KT 30/21 A3006 RMK A01 T02990208  RH  058%=      5-min Rain = 0
KDO2 141505Z 03006KT 30/21 A3006 RMK A01 T03000214  RH  060%=      5-min Rain = 0
KDO2 141506Z 03006KT 30/21 A3006 RMK A01 T03000207  RH  057%=      5-min Rain = 0
KDO2 141507Z 02007KT 30/21 A3006 RMK A01 T03010211  RH  059%=      5-min Rain = 0
KDO2 141508Z 02008KT 30/21 A3006 RMK A01 T03010212  RH  059%=      5-min Rain = 0
KDO2 141509Z 03008KT 30/22 A3006 RMK A01 T03010215  RH  060%=      5-min Rain = 0
KDO2 141510Z 02008KT 30/21 A3006 RMK A01 T03010214  RH  060%=      5-min Rain = 0
KDO2 141511Z 03008KT 30/22 A3005 RMK A01 T03010215  RH  060%=      5-min Rain = 0
KDO2 141512Z 02007KT 30/22 A3005 RMK A01 T03010216  RH  060%=      5-min Rain = 0
KDO2 141513Z 02008KT 30/21 A3005 RMK A01 T03010212  RH  059%=      5-min Rain = 0
KDO2 141514Z 02007KT 30/21 A3006 RMK A01 T03010211  RH  059%=      5-min Rain = 0
KDO2 141515Z 01007KT 30/21 A3006 RMK A01 T03020214  RH  060%=      5-min Rain = 0
KDO2 141516Z 02009KT 30/21 A3006 RMK A01 T03010213  RH  059%=      5-min Rain = 0
KDO2 141517Z 03008KT 30/21 A3006 RMK A01 T03010212  RH  059%=      5-min Rain = 0
KDO2 141518Z 02008KT 30/21 A3006 RMK A01 T03020211  RH  058%=      5-min Rain = 0
KDO2 141519Z 03007KT 30/21 A3006 RMK A01 T03020209  RH  057%=      5-min Rain = 0
KDO2 141520Z 02006KT 30/21 A3006 RMK A01 T03020211  RH  058%=      5-min Rain = 0
KDO2 141521Z 01008KT 30/21 A3006 RMK A01 T03020212  RH  059%=      5-min Rain = 0
KDO2 141522Z 02007KT 30/21 A3006 RMK A01 T03030214  RH  059%=      5-min Rain = 0
KDO2 141523Z 02007KT 30/22 A3006 RMK A01 T03040215  RH  059%=      5-min Rain = 0
KDO2 141524Z 03008KT 31/21 A3006 RMK A01 T03050211  RH  057%=      5-min Rain = 0
KDO2 141525Z 02005KT 31/21 A3006 RMK A01 T03050210  RH  057%=      5-min Rain = 0
KDO2 141526Z 03006KT 31/21 A3006 RMK A01 T03050213  RH  058%=      5-min Rain = 0
KDO2 141527Z 04007KT 31/21 A3006 RMK A01 T03050210  RH  057%=      5-min Rain = 0
KDO2 141528Z 03006KT 31/22 A3006 RMK A01 T03060216  RH  059%=      5-min Rain = 0
KDO2 141529Z 03005KT 31/21 A3006 RMK A01 T03080214  RH  057%=      5-min Rain = 0
KDO2 141530Z 03006KT 31/21 A3006 RMK A01 T03100214  RH  057%=      5-min Rain = 0
KDO2 141531Z 04004KT 31/21 A3006 RMK A01 T03110209  RH  055%=      5-min Rain = 0
KDO2 141532Z 04004KT 31/21 A3006 RMK A01 T03110212  RH  056%=      5-min Rain = 0
KDO2 141533Z 05004KT 31/21 A3006 RMK A01 T03110209  RH  055%=      5-min Rain = 0
KDO2 141534Z 06004KT 31/21 A3006 RMK A01 T03120209  RH  055%=      5-min Rain = 0
KDO2 141535Z 06003KT 31/21 A3006 RMK A01 T03120208  RH  054%=      5-min Rain = 0
KDO2 141536Z 03003KT 31/21 A3006 RMK A01 T03120209  RH  054%=      5-min Rain = 0
KDO2 141537Z 06003KT 31/21 A3006 RMK A01 T03120207  RH  054%=      5-min Rain = 0
KDO2 141538Z 08004KT 31/21 A3006 RMK A01 T03120205  RH  053%=      5-min Rain = 0
KDO2 141539Z 07004KT 31/21 A3007 RMK A01 T03120209  RH  054%=      5-min Rain = 0
KDO2 141540Z 07003KT 31/21 A3007 RMK A01 T03130208  RH  053%=      5-min Rain = 0
KDO2 141541Z 07004KT 31/21 A3007 RMK A01 T03140207  RH  053%=      5-min Rain = 0
KDO2 141542Z 05004KT 32/21 A3007 RMK A01 T03160213  RH  054%=      5-min Rain = 0
KDO2 141543Z 06004KT 32/21 A3007 RMK A01 T03170209  RH  053%=      5-min Rain = 0
KDO2 141544Z 08003KT 32/20 A3007 RMK A01 T03160204  RH  051%=      5-min Rain = 0
KDO2 141545Z 08004KT 32/21 A3007 RMK A01 T03150207  RH  053%=      5-min Rain = 0
KDO2 141546Z 08003KT 31/20 A3007 RMK A01 T03140203  RH  052%=      5-min Rain = 0
KDO2 141547Z 08001KT 31/20 A3007 RMK A01 T03130201  RH  052%=      5-min Rain = 0
KDO2 141548Z 09002KT 31/20 A3007 RMK A01 T03120202  RH  052%=      5-min Rain = 0
KDO2 141549Z 07003KT 31/21 A3007 RMK A01 T03120206  RH  053%=      5-min Rain = 0
KDO2 141550Z 08002KT 31/20 A3007 RMK A01 T03130204  RH  053%=      5-min Rain = 0
KDO2 141551Z 08002KT 31/20 A3007 RMK A01 T03120203  RH  052%=      5-min Rain = 0
KDO2 141552Z 08002KT 31/20 A3007 RMK A01 T03120202  RH  052%=      5-min Rain = 0
KDO2 141553Z 05002KT 31/21 A3007 RMK A01 T03110207  RH  054%=      5-min Rain = 0
KDO2 141554Z 05001KT 31/20 A3007 RMK A01 T03110203  RH  053%=      5-min Rain = 0
KDO2 141555Z 05002KT 31/21 A3007 RMK A01 T03110205  RH  053%=      5-min Rain = 0
KDO2 141556Z 05003KT 31/21 A3007 RMK A01 T03120207  RH  054%=      5-min Rain = 0
KDO2 141557Z 06004KT 31/21 A3007 RMK A01 T03120208  RH  054%=      5-min Rain = 0
KDO2 141558Z 06002KT 31/21 A3007 RMK A01 T03110206  RH  054%=      5-min Rain = 0
KDO2 141559Z 07001KT 31/20 A3007 RMK A01 T03110204  RH  053%=      5-min Rain = 0
KDO2 141600Z 06000KT 31/21 A3007 RMK A01 T03110206  RH  054%=      5-min Rain = 0
KDO2 141601Z 09002KT 31/21 A3007 RMK A01 T03120207  RH  054%=      5-min Rain = 0
KDO2 141602Z 10002KT 31/21 A3007 RMK A01 T03120210  RH  054%=      5-min Rain = 0
KDO2 141603Z 05003KT 31/21 A3007 RMK A01 T03130211  RH  055%=      5-min Rain = 0
KDO2 141604Z 06003KT 31/21 A3007 RMK A01 T03130207  RH  053%=      5-min Rain = 0
KDO2 141605Z 08003KT 31/21 A3007 RMK A01 T03110209  RH  054%=      5-min Rain = 0
KDO2 141606Z 10003KT 31/21 A3007 RMK A01 T03110205  RH  053%=      5-min Rain = 0
KDO2 141607Z 08002KT 31/21 A3007 RMK A01 T03100206  RH  054%=      5-min Rain = 0
KDO2 141608Z 06004KT 31/21 A3007 RMK A01 T03110210  RH  055%=      5-min Rain = 0
KDO2 141609Z 05004KT 31/21 A3007 RMK A01 T03100209  RH  055%=      5-min Rain = 0
KDO2 141610Z 07005KT 31/21 A3007 RMK A01 T03090211  RH  056%=      5-min Rain = 0
KDO2 141611Z 08005KT 31/21 A3007 RMK A01 T03090211  RH  056%=      5-min Rain = 0
KDO2 141612Z 08004KT 31/21 A3007 RMK A01 T03080208  RH  055%=      5-min Rain = 0
KDO2 141613Z 08004KT 31/21 A3007 RMK A01 T03080207  RH  055%=      5-min Rain = 0
KDO2 141614Z 07004KT 31/21 A3007 RMK A01 T03070210  RH  056%=      5-min Rain = 0
KDO2 141615Z 09004KT 31/21 A3007 RMK A01 T03070208  RH  055%=      5-min Rain = 0
KDO2 141616Z 08004KT 31/21 A3007 RMK A01 T03070209  RH  056%=      5-min Rain = 0
KDO2 141617Z 09005KT 31/20 A3007 RMK A01 T03070204  RH  054%=      5-min Rain = 0
KDO2 141618Z 08004KT 31/21 A3007 RMK A01 T03080205  RH  055%=      5-min Rain = 0
KDO2 141619Z 08004KT 31/21 A3007 RMK A01 T03080207  RH  055%=      5-min Rain = 0
KDO2 141620Z 09004KT 31/21 A3007 RMK A01 T03080206  RH  055%=      5-min Rain = 0
KDO2 141621Z 08004KT 31/21 A3007 RMK A01 T03070205  RH  054%=      5-min Rain = 0
KDO2 141622Z 06004KT 31/21 A3007 RMK A01 T03070211  RH  056%=      5-min Rain = 0
KDO2 141623Z 07004KT 31/21 A3007 RMK A01 T03070211  RH  057%=      5-min Rain = 0
KDO2 141624Z 06003KT 31/21 A3007 RMK A01 T03070209  RH  056%=      5-min Rain = 0
KDO2 141625Z 08004KT 31/21 A3007 RMK A01 T03060211  RH  057%=      5-min Rain = 0
KDO2 141626Z 08004KT 31/21 A3007 RMK A01 T03060210  RH  056%=      5-min Rain = 0
KDO2 141627Z 09003KT 31/21 A3007 RMK A01 T03060208  RH  056%=      5-min Rain = 0
KDO2 141628Z 09003KT 31/20 A3007 RMK A01 T03070204  RH  054%=      5-min Rain = 0
KDO2 141629Z 10003KT 31/20 A3007 RMK A01 T03080203  RH  053%=      5-min Rain = 0
KDO2 141630Z 10003KT 31/20 A3007 RMK A01 T03080202  RH  053%=      5-min Rain = 0
KDO2 141631Z 10003KT 31/21 A3007 RMK A01 T03080205  RH  054%=      5-min Rain = 0
KDO2 141632Z 09002KT 31/20 A3007 RMK A01 T03080203  RH  054%=      5-min Rain = 0
KDO2 141633Z 08002KT 31/20 A3007 RMK A01 T03080203  RH  053%=      5-min Rain = 0
KDO2 141634Z 09001KT 31/20 A3007 RMK A01 T03080204  RH  054%=      5-min Rain = 0
KDO2 141635Z 08002KT 31/21 A3007 RMK A01 T03080207  RH  055%=      5-min Rain = 0
KDO2 141636Z 08002KT 31/21 A3007 RMK A01 T03090209  RH  055%=      5-min Rain = 0
KDO2 141637Z 09002KT 31/21 A3007 RMK A01 T03090208  RH  055%=      5-min Rain = 0
KDO2 141638Z 11002KT 31/20 A3007 RMK A01 T03090204  RH  054%=      5-min Rain = 0
KDO2 141639Z 11001KT 31/20 A3007 RMK A01 T03090202  RH  053%=      5-min Rain = 0
KDO2 141640Z 13001KT 31/21 A3007 RMK A01 T03090205  RH  054%=      5-min Rain = 0
KDO2 141641Z 07000KT 31/21 A3007 RMK A01 T03100205  RH  053%=      5-min Rain = 0
KDO2 141642Z 05001KT 31/21 A3007 RMK A01 T03110208  RH  054%=      5-min Rain = 0
KDO2 141643Z 04002KT 31/21 A3007 RMK A01 T03110208  RH  054%=      5-min Rain = 0
KDO2 141644Z 04002KT 31/21 A3007 RMK A01 T03110205  RH  053%=      5-min Rain = 0
KDO2 141645Z 05002KT 31/21 A3007 RMK A01 T03110210  RH  055%=      5-min Rain = 0
KDO2 141646Z 05002KT 31/21 A3007 RMK A01 T03110207  RH  054%=      5-min Rain = 0
KDO2 141647Z 05002KT 31/21 A3007 RMK A01 T03110212  RH  056%=      5-min Rain = 0
KDO2 141648Z 05002KT 31/21 A3007 RMK A01 T03100209  RH  055%=      5-min Rain = 0
KDO2 141649Z 03001KT 31/21 A3007 RMK A01 T03110206  RH  054%=      5-min Rain = 0
KDO2 141650Z 01002KT 31/21 A3007 RMK A01 T03120211  RH  055%=      5-min Rain = 0
KDO2 141651Z 03002KT 31/21 A3007 RMK A01 T03120206  RH  053%=      5-min Rain = 0
KDO2 141652Z 01002KT 31/21 A3007 RMK A01 T03120208  RH  054%=      5-min Rain = 0
KDO2 141653Z 02002KT 31/21 A3007 RMK A01 T03130208  RH  054%=      5-min Rain = 0
KDO2 141654Z 03001KT 31/21 A3007 RMK A01 T03140207  RH  053%=      5-min Rain = 0
KDO2 141655Z 04003KT 31/21 A3007 RMK A01 T03140206  RH  053%=      5-min Rain = 0
KDO2 141656Z 04002KT 32/20 A3007 RMK A01 T03150203  RH  052%=      5-min Rain = 0
KDO2 141657Z 02002KT 31/21 A3007 RMK A01 T03140207  RH  053%=      5-min Rain = 0
KDO2 141658Z 05003KT 32/21 A3007 RMK A01 T03150212  RH  054%=      5-min Rain = 0
KDO2 141659Z 07003KT 32/21 A3007 RMK A01 T03160211  RH  054%=      5-min Rain = 0
KDO2 141700Z 07003KT 32/21 A3007 RMK A01 T03170206  RH  052%=      5-min Rain = 0
KDO2 141701Z 06002KT 32/21 A3007 RMK A01 T03160208  RH  053%=      5-min Rain = 0
KDO2 141702Z 04002KT 32/21 A3007 RMK A01 T03160205  RH  052%=      5-min Rain = 0
KDO2 141703Z 05001KT 32/21 A3007 RMK A01 T03170205  RH  052%=      5-min Rain = 0
KDO2 141704Z 06002KT 32/21 A3007 RMK A01 T03160208  RH  053%=      5-min Rain = 0
KDO2 141705Z 04002KT 32/21 A3007 RMK A01 T03170213  RH  054%=      5-min Rain = 0
KDO2 141706Z 03003KT 32/21 A3007 RMK A01 T03170214  RH  054%=      5-min Rain = 0
KDO2 141707Z 01003KT 32/21 A3007 RMK A01 T03180212  RH  054%=      5-min Rain = 0
KDO2 141708Z 34001KT 32/21 A3007 RMK A01 T03180205  RH  051%=      5-min Rain = 0
KDO2 141709Z 35002KT 32/21 A3007 RMK A01 T03190208  RH  052%=      5-min Rain = 0
KDO2 141710Z 34003KT 32/22 A3007 RMK A01 T03210216  RH  054%=      5-min Rain = 0
KDO2 141711Z 32001KT 32/21 A3007 RMK A01 T03220210  RH  052%=      5-min Rain = 0
KDO2 141712Z 00001KT 32/21 A3007 RMK A01 T03230211  RH  052%=      5-min Rain = 0
KDO2 141713Z 01002KT 32/21 A3007 RMK A01 T03240213  RH  052%=      5-min Rain = 0
KDO2 141714Z 03001KT 32/21 A3007 RMK A01 T03240207  RH  050%=      5-min Rain = 0
KDO2 141715Z 04001KT 32/21 A3007 RMK A01 T03240207  RH  050%=      5-min Rain = 0
KDO2 141716Z 01003KT 32/21 A3007 RMK A01 T03230212  RH  052%=      5-min Rain = 0
KDO2 141717Z 02003KT 32/21 A3007 RMK A01 T03230211  RH  052%=      5-min Rain = 0
KDO2 141718Z 03003KT 32/21 A3007 RMK A01 T03230208  RH  051%=      5-min Rain = 0
KDO2 141719Z 01003KT 32/22 A3007 RMK A01 T03230215  RH  053%=      5-min Rain = 0
KDO2 141720Z 04003KT 32/21 A3007 RMK A01 T03240214  RH  052%=      5-min Rain = 0
KDO2 141721Z 03003KT 33/22 A3007 RMK A01 T03260218  RH  053%=      5-min Rain = 0
KDO2 141722Z 03005KT 33/21 A3007 RMK A01 T03280212  RH  051%=      5-min Rain = 0
KDO2 141723Z 04006KT 33/21 A3007 RMK A01 T03270214  RH  052%=      5-min Rain = 0
KDO2 141724Z 02005KT 33/21 A3007 RMK A01 T03260213  RH  051%=      5-min Rain = 0
KDO2 141725Z 01003KT 33/22 A3007 RMK A01 T03250220  RH  054%=      5-min Rain = 0
KDO2 141726Z 36005KT 33/21 A3007 RMK A01 T03250212  RH  051%=      5-min Rain = 0
KDO2 141727Z 02005KT 32/22 A3007 RMK A01 T03240217  RH  053%=      5-min Rain = 0
KDO2 141728Z 02006KT 32/21 A3007 RMK A01 T03230211  RH  052%=      5-min Rain = 0
KDO2 141729Z 02004KT 32/21 A3007 RMK A01 T03220209  RH  051%=      5-min Rain = 0
KDO2 141730Z 03002KT 32/21 A3007 RMK A01 T03220208  RH  051%=      5-min Rain = 0
KDO2 141731Z 05002KT 32/21 A3006 RMK A01 T03230207  RH  050%=      5-min Rain = 0
KDO2 141732Z 05002KT 32/21 A3006 RMK A01 T03240205  RH  049%=      5-min Rain = 0
KDO2 141733Z 05003KT 33/21 A3006 RMK A01 T03260211  RH  051%=      5-min Rain = 0
KDO2 141734Z 07002KT 33/21 A3006 RMK A01 T03290209  RH  049%=      5-min Rain = 0
KDO2 141735Z 03005KT 33/21 A3006 RMK A01 T03310213  RH  050%=      5-min Rain = 0
KDO2 141736Z 02004KT 33/21 A3006 RMK A01 T03320213  RH  050%=      5-min Rain = 0
KDO2 141737Z 03002KT 33/21 A3006 RMK A01 T03310206  RH  048%=      5-min Rain = 0
KDO2 141738Z 04003KT 33/21 A3006 RMK A01 T03300207  RH  049%=      5-min Rain = 0
KDO2 141739Z 06003KT 33/21 A3006 RMK A01 T03300213  RH  050%=      5-min Rain = 0
KDO2 141740Z 05004KT 33/21 A3006 RMK A01 T03300208  RH  049%=      5-min Rain = 0
KDO2 141741Z 05004KT 33/21 A3006 RMK A01 T03280206  RH  049%=      5-min Rain = 0
KDO2 141742Z 04005KT 33/21 A3006 RMK A01 T03280212  RH  051%=      5-min Rain = 0
KDO2 141743Z 04003KT 33/21 A3006 RMK A01 T03290208  RH  049%=      5-min Rain = 0
KDO2 141744Z 04002KT 33/21 A3006 RMK A01 T03290207  RH  049%=      5-min Rain = 0
KDO2 141745Z 04004KT 33/21 A3006 RMK A01 T03290209  RH  049%=      5-min Rain = 0
KDO2 141746Z 04005KT 33/21 A3005 RMK A01 T03300213  RH  050%=      5-min Rain = 0
KDO2 141747Z 02005KT 33/22 A3005 RMK A01 T03300215  RH  051%=      5-min Rain = 0
KDO2 141748Z 02005KT 33/21 A3005 RMK A01 T03310213  RH  050%=      5-min Rain = 0
KDO2 141749Z 01004KT 33/21 A3005 RMK A01 T03320211  RH  049%=      5-min Rain = 0
KDO2 141750Z 02004KT 33/21 A3005 RMK A01 T03310211  RH  049%=      5-min Rain = 0
KDO2 141751Z 00002KT 33/21 A3005 RMK A01 T03320207  RH  048%=      5-min Rain = 0
KDO2 141752Z 02004KT 33/21 A3005 RMK A01 T03320208  RH  048%=      5-min Rain = 0
KDO2 141753Z 02006KT 33/21 A3005 RMK A01 T03320212  RH  049%=      5-min Rain = 0
KDO2 141754Z 03006KT 33/21 A3005 RMK A01 T03330213  RH  050%=      5-min Rain = 0
KDO2 141755Z 03006KT 33/21 A3005 RMK A01 T03330209  RH  048%=      5-min Rain = 0
KDO2 141756Z 02005KT 33/21 A3005 RMK A01 T03320210  RH  049%=      5-min Rain = 0
KDO2 141757Z 34005KT 33/21 A3005 RMK A01 T03320210  RH  049%=      5-min Rain = 0
KDO2 141758Z 33004KT 33/21 A3005 RMK A01 T03330208  RH  048%=      5-min Rain = 0
KDO2 141759Z 31003KT 33/21 A3005 RMK A01 T03330206  RH  047%=      5-min Rain = 0
KDO2 141800Z 31003KT 33/21 A3005 RMK A01 T03330205  RH  047%=      5-min Rain = 0
KDO2 141801Z 33003KT 33/21 A3005 RMK A01 T03340209  RH  048%=      5-min Rain = 0
KDO2 141802Z 01004KT 34/21 A3005 RMK A01 T03350211  RH  048%=      5-min Rain = 0
KDO2 141803Z 03005KT 34/22 A3005 RMK A01 T03360215  RH  049%=      5-min Rain = 0
KDO2 141804Z 04007KT 34/21 A3005 RMK A01 T03370212  RH  048%=      5-min Rain = 0
KDO2 141805Z 04006KT 34/21 A3005 RMK A01 T03370210  RH  047%=      5-min Rain = 0
KDO2 141806Z 01006KT 34/21 A3005 RMK A01 T03360212  RH  048%=      5-min Rain = 0
KDO2 141807Z 02007KT 34/21 A3004 RMK A01 T03370211  RH  048%=      5-min Rain = 0
KDO2 141808Z 02006KT 34/21 A3004 RMK A01 T03360211  RH  048%=      5-min Rain = 0
KDO2 141809Z 35006KT 34/21 A3004 RMK A01 T03360213  RH  049%=      5-min Rain = 0
KDO2 141810Z 02005KT 34/22 A3005 RMK A01 T03350215  RH  049%=      5-min Rain = 0
KDO2 141811Z 04005KT 34/21 A3005 RMK A01 T03360209  RH  048%=      5-min Rain = 0
KDO2 141812Z 07002KT 34/21 A3005 RMK A01 T03360207  RH  047%=      5-min Rain = 0
KDO2 141813Z 01003KT 34/21 A3005 RMK A01 T03360211  RH  048%=      5-min Rain = 0
KDO2 141814Z 01004KT 34/21 A3005 RMK A01 T03370210  RH  047%=      5-min Rain = 0
KDO2 141815Z 05005KT 34/21 A3004 RMK A01 T03380214  RH  048%=      5-min Rain = 0
KDO2 141816Z 05006KT 34/21 A3004 RMK A01 T03370212  RH  048%=      5-min Rain = 0
KDO2 141817Z 06004KT 34/21 A3004 RMK A01 T03360208  RH  047%=      5-min Rain = 0
KDO2 141818Z 05001KT 34/21 A3004 RMK A01 T03350207  RH  047%=      5-min Rain = 0
KDO2 141819Z 05003KT 33/21 A3004 RMK A01 T03340209  RH  048%=      5-min Rain = 0
KDO2 141820Z 07004KT 34/21 A3004 RMK A01 T03350211  RH  048%=      5-min Rain = 0
KDO2 141821Z 09004KT 34/20 A3004 RMK A01 T03350203  RH  046%=      5-min Rain = 0
KDO2 141822Z 10004KT 34/20 A3004 RMK A01 T03360204  RH  046%=      5-min Rain = 0
KDO2 141823Z 09004KT 34/20 A3004 RMK A01 T03360204  RH  046%=      5-min Rain = 0
KDO2 141824Z 09005KT 34/21 A3004 RMK A01 T03370205  RH  046%=      5-min Rain = 0
KDO2 141825Z 07006KT 34/21 A3004 RMK A01 T03400206  RH  046%=      5-min Rain = 0
KDO2 141826Z 06005KT 34/21 A3004 RMK A01 T03410206  RH  045%=      5-min Rain = 0
KDO2 141827Z 06006KT 34/21 A3004 RMK A01 T03400212  RH  047%=      5-min Rain = 0
KDO2 141828Z 07006KT 34/20 A3004 RMK A01 T03390204  RH  045%=      5-min Rain = 0
KDO2 141829Z 08004KT 34/21 A3004 RMK A01 T03370205  RH  046%=      5-min Rain = 0
KDO2 141830Z 08003KT 34/20 A3004 RMK A01 T03360204  RH  046%=      5-min Rain = 0
KDO2 141831Z 09004KT 34/21 A3004 RMK A01 T03370209  RH  047%=      5-min Rain = 0
KDO2 141832Z 10004KT 34/20 A3004 RMK A01 T03410203  RH  045%=      5-min Rain = 0
KDO2 141833Z 10002KT 34/20 A3004 RMK A01 T03420203  RH  044%=      5-min Rain = 0
KDO2 141834Z 13001KT 34/20 A3004 RMK A01 T03420204  RH  044%=      5-min Rain = 0
KDO2 141835Z 16004KT 34/21 A3004 RMK A01 T03430205  RH  044%=      5-min Rain = 0
KDO2 141836Z 15003KT 34/21 A3003 RMK A01 T03440207  RH  045%=      5-min Rain = 0
KDO2 141837Z 13003KT 35/21 A3003 RMK A01 T03460207  RH  044%=      5-min Rain = 0
KDO2 141838Z 11003KT 35/21 A3003 RMK A01 T03470206  RH  044%=      5-min Rain = 0
KDO2 141839Z 02003KT 35/20 A3003 RMK A01 T03470203  RH  043%=      5-min Rain = 0
KDO2 141840Z 04001KT 35/20 A3003 RMK A01 T03450200  RH  043%=      5-min Rain = 0
KDO2 141841Z 11002KT 34/20 A3003 RMK A01 T03440201  RH  043%=      5-min Rain = 0
KDO2 141842Z 09005KT 35/20 A3003 RMK A01 T03450204  RH  044%=      5-min Rain = 0
KDO2 141843Z 06004KT 35/21 A3003 RMK A01 T03460205  RH  044%=      5-min Rain = 0
KDO2 141844Z 06002KT 35/20 A3003 RMK A01 T03460202  RH  043%=      5-min Rain = 0
KDO2 141845Z 01002KT 34/20 A3003 RMK A01 T03440202  RH  043%=      5-min Rain = 0
KDO2 141846Z 34000KT 34/20 A3003 RMK A01 T03430198  RH  043%=      5-min Rain = 0
KDO2 141847Z 05000KT 34/20 A3003 RMK A01 T03430195  RH  042%=      5-min Rain = 0
KDO2 141848Z 05003KT 35/20 A3003 RMK A01 T03450204  RH  044%=      5-min Rain = 0
KDO2 141849Z 03003KT 35/20 A3003 RMK A01 T03460201  RH  043%=      5-min Rain = 0
KDO2 141850Z 03002KT 35/20 A3003 RMK A01 T03450200  RH  043%=      5-min Rain = 0
KDO2 141851Z 03001KT 35/20 A3003 RMK A01 T03450199  RH  043%=      5-min Rain = 0
KDO2 141852Z 06001KT 35/20 A3002 RMK A01 T03450201  RH  043%=      5-min Rain = 0
KDO2 141853Z 09007KT 35/21 A3002 RMK A01 T03480207  RH  044%=      5-min Rain = 0
KDO2 141854Z 09006KT 35/20 A3003 RMK A01 T03510204  RH  042%=      5-min Rain = 0
KDO2 141855Z 10006KT 35/20 A3003 RMK A01 T03510200  RH  041%=      5-min Rain = 0
KDO2 141856Z 11005KT 35/20 A3003 RMK A01 T03500200  RH  042%=      5-min Rain = 0
KDO2 141857Z 13005KT 35/20 A3003 RMK A01 T03490202  RH  042%=      5-min Rain = 0
KDO2 141858Z 14005KT 35/20 A3003 RMK A01 T03500199  RH  041%=      5-min Rain = 0
KDO2 141859Z 11004KT 35/20 A3003 RMK A01 T03500201  RH  042%=      5-min Rain = 0
KDO2 141900Z 08005KT 35/20 A3003 RMK A01 T03500200  RH  041%=      5-min Rain = 0
KDO2 141901Z 08003KT 35/20 A3003 RMK A01 T03520197  RH  040%=      5-min Rain = 0
KDO2 141902Z 10002KT 35/20 A3003 RMK A01 T03520199  RH  041%=      5-min Rain = 0
KDO2 141903Z 07001KT 35/20 A3003 RMK A01 T03520200  RH  041%=      5-min Rain = 0
KDO2 141904Z 11004KT 35/20 A3003 RMK A01 T03530203  RH  042%=      5-min Rain = 0
KDO2 141905Z 09003KT 35/20 A3003 RMK A01 T03530197  RH  040%=      5-min Rain = 0
KDO2 141906Z 11005KT 35/20 A3003 RMK A01 T03520201  RH  041%=      5-min Rain = 0
KDO2 141907Z 11005KT 35/20 A3002 RMK A01 T03530199  RH  041%=      5-min Rain = 0
KDO2 141908Z 11004KT 35/20 A3002 RMK A01 T03520200  RH  041%=      5-min Rain = 0
KDO2 141909Z 13005KT 35/20 A3002 RMK A01 T03520203  RH  042%=      5-min Rain = 0
KDO2 141910Z 12004KT 35/20 A3002 RMK A01 T03530201  RH  041%=      5-min Rain = 0
KDO2 141911Z 11002KT 35/20 A3002 RMK A01 T03530201  RH  041%=      5-min Rain = 0
KDO2 141912Z 12002KT 35/20 A3002 RMK A01 T03540201  RH  041%=      5-min Rain = 0
KDO2 141913Z 12001KT 35/20 A3002 RMK A01 T03530197  RH  040%=      5-min Rain = 0
KDO2 141914Z 05000KT 35/20 A3002 RMK A01 T03530200  RH  041%=      5-min Rain = 0
KDO2 141915Z 08001KT 35/20 A3002 RMK A01 T03540201  RH  041%=      5-min Rain = 0
KDO2 141916Z 33002KT 36/20 A3002 RMK A01 T03550198  RH  040%=      5-min Rain = 0
KDO2 141917Z 32000KT 35/19 A3002 RMK A01 T03540194  RH  039%=      5-min Rain = 0
KDO2 141918Z 00000KT 35/20 A3002 RMK A01 T03540195  RH  039%=      5-min Rain = 0
KDO2 141919Z 16002KT 36/20 A3001 RMK A01 T03550200  RH  041%=      5-min Rain = 0
KDO2 141920Z 16003KT 36/20 A3001 RMK A01 T03570199  RH  040%=      5-min Rain = 0
KDO2 141921Z 16004KT 36/20 A3001 RMK A01 T03580198  RH  039%=      5-min Rain = 0
KDO2 141922Z 14004KT 36/20 A3001 RMK A01 T03590198  RH  039%=      5-min Rain = 0
KDO2 141923Z 17005KT 36/20 A3001 RMK A01 T03590199  RH  039%=      5-min Rain = 0
KDO2 141924Z 16007KT 36/20 A3001 RMK A01 T03580198  RH  039%=      5-min Rain = 0
KDO2 141925Z 16006KT 36/20 A3001 RMK A01 T03570198  RH  040%=      5-min Rain = 0
KDO2 141926Z 16006KT 36/20 A3001 RMK A01 T03550197  RH  040%=      5-min Rain = 0
KDO2 141927Z 17006KT 36/19 A3001 RMK A01 T03550193  RH  039%=      5-min Rain = 0
KDO2 141928Z 15006KT 36/19 A3001 RMK A01 T03550193  RH  039%=      5-min Rain = 0
KDO2 141929Z 14005KT 36/19 A3001 RMK A01 T03550190  RH  038%=      5-min Rain = 0
KDO2 141930Z 13004KT 35/19 A3001 RMK A01 T03540190  RH  038%=      5-min Rain = 0
KDO2 141931Z 12003KT 35/19 A3001 RMK A01 T03540189  RH  038%=      5-min Rain = 0
KDO2 141932Z 14004KT 35/20 A3001 RMK A01 T03540196  RH  040%=      5-min Rain = 0
KDO2 141933Z 12006KT 36/19 A3001 RMK A01 T03570193  RH  038%=      5-min Rain = 0
KDO2 141934Z 13005KT 36/19 A3001 RMK A01 T03570190  RH  038%=      5-min Rain = 0
KDO2 141935Z 13003KT 36/19 A3001 RMK A01 T03560186  RH  037%=      5-min Rain = 0
KDO2 141936Z 15002KT 36/18 A3001 RMK A01 T03560183  RH  036%=      5-min Rain = 0
KDO2 141937Z 18002KT 36/19 A30 RMK A01 T03560186  RH  037%=      5-min Rain = 0
KDO2 141938Z 17001KT 36/19 A30 RMK A01 T03590191  RH  037%=      5-min Rain = 0
KDO2 141939Z 11003KT 36/19 A30 RMK A01 T03640192  RH  037%=      5-min Rain = 0
KDO2 141940Z 11004KT 37/19 A30 RMK A01 T03650188  RH  036%=      5-min Rain = 0
KDO2 141941Z 11003KT 36/19 A30 RMK A01 T03620189  RH  036%=      5-min Rain = 0
KDO2 141942Z 12001KT 36/19 A30 RMK A01 T03610185  RH  036%=      5-min Rain = 0
KDO2 141943Z 03001KT 36/19 A30 RMK A01 T03600185  RH  036%=      5-min Rain = 0
KDO2 141944Z 35001KT 36/18 A30 RMK A01 T03600183  RH  035%=      5-min Rain = 0
KDO2 141945Z 05003KT 36/19 A30 RMK A01 T03580188  RH  037%=      5-min Rain = 0
KDO2 141946Z 06003KT 36/19 A30 RMK A01 T03570191  RH  038%=      5-min Rain = 0
KDO2 141947Z 07002KT 36/19 A30 RMK A01 T03560189  RH  038%=      5-min Rain = 0
KDO2 141948Z 04002KT 36/19 A30 RMK A01 T03550193  RH  039%=      5-min Rain = 0
KDO2 141949Z 02002KT 36/19 A30 RMK A01 T03560188  RH  037%=      5-min Rain = 0
KDO2 141950Z 03003KT 36/19 A30 RMK A01 T03550188  RH  038%=      5-min Rain = 0
KDO2 141951Z 03005KT 35/19 A30 RMK A01 T03530191  RH  039%=      5-min Rain = 0
KDO2 141952Z 03006KT 35/19 A30 RMK A01 T03520189  RH  038%=      5-min Rain = 0
KDO2 141953Z 02004KT 35/18 A30 RMK A01 T03500184  RH  037%=      5-min Rain = 0
KDO2 141954Z 04002KT 35/19 A30 RMK A01 T03490186  RH  038%=      5-min Rain = 0
KDO2 141955Z 36001KT 35/18 A30 RMK A01 T03490181  RH  037%=      5-min Rain = 0
KDO2 141956Z 01004KT 35/19 A30 RMK A01 T03490191  RH  039%=      5-min Rain = 0
KDO2 141957Z 34003KT 35/20 A30 RMK A01 T03490196  RH  041%=      5-min Rain = 0
KDO2 141958Z 34002KT 35/19 A2999 RMK A01 T03490193  RH  040%=      5-min Rain = 0
KDO2 141959Z 34003KT 35/19 A2999 RMK A01 T03490190  RH  039%=      5-min Rain = 0
KDO2 142000Z 01004KT 35/20 A2999 RMK A01 T03480197  RH  041%=      5-min Rain = 0
KDO2 142001Z 03004KT 35/20 A2999 RMK A01 T03480198  RH  042%=      5-min Rain = 0
KDO2 142002Z 02003KT 35/19 A2999 RMK A01 T03470188  RH  039%=      5-min Rain = 0
KDO2 142003Z 03002KT 35/19 A2999 RMK A01 T03470188  RH  039%=      5-min Rain = 0
KDO2 142004Z 03001KT 35/18 A2999 RMK A01 T03470184  RH  038%=      5-min Rain = 0
KDO2 142005Z 00002KT 35/19 A2999 RMK A01 T03480187  RH  039%=      5-min Rain = 0
KDO2 142006Z 02002KT 35/19 A2999 RMK A01 T03480186  RH  039%=      5-min Rain = 0
KDO2 142007Z 01001KT 35/19 A2999 RMK A01 T03480185  RH  038%=      5-min Rain = 0
KDO2 142008Z 34001KT 35/19 A2999 RMK A01 T03480187  RH  039%=      5-min Rain = 0
KDO2 142009Z 33001KT 35/19 A2999 RMK A01 T03490190  RH  039%=      5-min Rain = 0
KDO2 142010Z 00000KT 35/19 A2999 RMK A01 T03490189  RH  039%=      5-min Rain = 0
KDO2 142011Z 00000KT 35/19 A2999 RMK A01 T03490187  RH  038%=      5-min Rain = 0
KDO2 142012Z 07002KT 35/19 A2999 RMK A01 T03500188  RH  039%=      5-min Rain = 0
KDO2 142013Z 09002KT 35/19 A2999 RMK A01 T03500186  RH  038%=      5-min Rain = 0
KDO2 142014Z 10002KT 35/19 A2999 RMK A01 T03500187  RH  038%=      5-min Rain = 0
KDO2 142015Z 09001KT 35/19 A2999 RMK A01 T03500190  RH  039%=      5-min Rain = 0
KDO2 142016Z 11001KT 35/19 A2998 RMK A01 T03500185  RH  038%=      5-min Rain = 0
KDO2 142017Z 11000KT 35/18 A2998 RMK A01 T03500181  RH  037%=      5-min Rain = 0
KDO2 142018Z 16000KT 35/18 A2998 RMK A01 T03500183  RH  037%=      5-min Rain = 0
KDO2 142019Z 17002KT 35/18 A2998 RMK A01 T03510183  RH  037%=      5-min Rain = 0
KDO2 142020Z 18000KT 35/19 A2998 RMK A01 T03510185  RH  038%=      5-min Rain = 0
KDO2 142021Z 18001KT 35/18 A2998 RMK A01 T03510183  RH  037%=      5-min Rain = 0
KDO2 142022Z 21001KT 35/18 A2998 RMK A01 T03520184  RH  037%=      5-min Rain = 0
KDO2 142023Z 20001KT 35/18 A2998 RMK A01 T03520183  RH  037%=      5-min Rain = 0
KDO2 142024Z 19003KT 35/19 A2998 RMK A01 T03520190  RH  039%=      5-min Rain = 0
KDO2 142025Z 19002KT 35/19 A2998 RMK A01 T03520187  RH  038%=      5-min Rain = 0
KDO2 142026Z 22002KT 35/19 A2998 RMK A01 T03500185  RH  038%=      5-min Rain = 0
KDO2 142027Z 24001KT 35/18 A2998 RMK A01 T03490184  RH  038%=      5-min Rain = 0
KDO2 142028Z 25001KT 35/19 A2998 RMK A01 T03490185  RH  038%=      5-min Rain = 0
KDO2 142029Z 25002KT 35/19 A2998 RMK A01 T03490187  RH  039%=      5-min Rain = 0
KDO2 142030Z 25002KT 35/19 A2998 RMK A01 T03490189  RH  039%=      5-min Rain = 0
KDO2 142031Z 25001KT 35/19 A2998 RMK A01 T03500188  RH  039%=      5-min Rain = 0
KDO2 142032Z 25001KT 35/19 A2998 RMK A01 T03500194  RH  040%=      5-min Rain = 0
KDO2 142033Z 22001KT 35/19 A2998 RMK A01 T03510187  RH  038%=      5-min Rain = 0
KDO2 142034Z 23001KT 35/19 A2998 RMK A01 T03510188  RH  038%=      5-min Rain = 0
KDO2 142035Z 24002KT 35/19 A2997 RMK A01 T03510190  RH  039%=      5-min Rain = 0
KDO2 142036Z 25002KT 35/19 A2997 RMK A01 T03510189  RH  038%=      5-min Rain = 0
KDO2 142037Z 25002KT 35/19 A2997 RMK A01 T03510188  RH  038%=      5-min Rain = 0
KDO2 142038Z 25001KT 35/19 A2997 RMK A01 T03510188  RH  038%=      5-min Rain = 0
KDO2 142039Z 25003KT 35/19 A2997 RMK A01 T03500189  RH  039%=      5-min Rain = 0
KDO2 142040Z 25003KT 35/19 A2997 RMK A01 T03500194  RH  040%=      5-min Rain = 0
KDO2 142041Z 25003KT 35/20 A2997 RMK A01 T03500195  RH  040%=      5-min Rain = 0
KDO2 142042Z 23003KT 35/20 A2997 RMK A01 T03490201  RH  042%=      5-min Rain = 0
KDO2 142043Z 21004KT 35/20 A2997 RMK A01 T03490197  RH  041%=      5-min Rain = 0
KDO2 142044Z 20004KT 35/19 A2997 RMK A01 T03490194  RH  040%=      5-min Rain = 0
KDO2 142045Z 19003KT 35/20 A2997 RMK A01 T03480195  RH  041%=      5-min Rain = 0
KDO2 142046Z 22004KT 35/20 A2997 RMK A01 T03480198  RH  041%=      5-min Rain = 0
KDO2 142047Z 23004KT 35/20 A2997 RMK A01 T03480195  RH  041%=      5-min Rain = 0
KDO2 142048Z 22006G11KT 35/20 A2997 RMK A01 T03480204  RH  043%=      5-min Rain = 0
KDO2 142049Z 22007KT 35/21 A2997 RMK A01 T03470206  RH  044%=      5-min Rain = 0
KDO2 142050Z 21008KT 34/21 A2997 RMK A01 T03420207  RH  045%=      5-min Rain = 0
KDO2 142051Z 22009KT 34/21 A2997 RMK A01 T03390205  RH  046%=      5-min Rain = 0
KDO2 142052Z 21008KT 34/21 A2997 RMK A01 T03380210  RH  047%=      5-min Rain = 0
KDO2 142053Z 21012KT 34/21 A2997 RMK A01 T03370208  RH  047%=      5-min Rain = 0
KDO2 142054Z 22011KT 34/21 A2997 RMK A01 T03360209  RH  047%=      5-min Rain = 0
KDO2 142055Z 22011KT 34/21 A2997 RMK A01 T03360209  RH  047%=      5-min Rain = 0
KDO2 142056Z 22011KT 34/21 A2997 RMK A01 T03360209  RH  047%=      5-min Rain = 0
KDO2 142057Z 21012KT 34/21 A2997 RMK A01 T03360208  RH  047%=      5-min Rain = 0
KDO2 142058Z 21011KT 34/21 A2997 RMK A01 T03360209  RH  047%=      5-min Rain = 0
KDO2 142059Z 21010KT 34/21 A2997 RMK A01 T03370211  RH  048%=      5-min Rain = 0
KDO2 142100Z 21010KT 34/21 A2997 RMK A01 T03380211  RH  047%=      5-min Rain = 0
KDO2 142101Z 21010KT 34/21 A2997 RMK A01 T03380209  RH  047%=      5-min Rain = 0
KDO2 142102Z 21011KT 34/21 A2996 RMK A01 T03390210  RH  047%=      5-min Rain = 0
KDO2 142103Z 21011KT 34/21 A2996 RMK A01 T03390209  RH  047%=      5-min Rain = 0
KDO2 142104Z 21011KT 34/21 A2996 RMK A01 T03390207  RH  046%=      5-min Rain = 0
KDO2 142105Z 21011KT 34/21 A2996 RMK A01 T03390209  RH  047%=      5-min Rain = 0
KDO2 142106Z 21010KT 34/21 A2996 RMK A01 T03390210  RH  047%=      5-min Rain = 0
KDO2 142107Z 22010KT 34/21 A2996 RMK A01 T03400211  RH  047%=      5-min Rain = 0
KDO2 142108Z 22009KT 34/21 A2996 RMK A01 T03410210  RH  046%=      5-min Rain = 0
KDO2 142109Z 20011KT 34/21 A2996 RMK A01 T03420209  RH  046%=      5-min Rain = 0
KDO2 142110Z 20009KT 34/21 A2996 RMK A01 T03420210  RH  046%=      5-min Rain = 0
KDO2 142111Z 21010KT 34/21 A2996 RMK A01 T03430209  RH  046%=      5-min Rain = 0
KDO2 142112Z 20010KT 34/21 A2996 RMK A01 T03430209  RH  046%=      5-min Rain = 0
KDO2 142113Z 21008KT 34/21 A2996 RMK A01 T03440212  RH  046%=      5-min Rain = 0
KDO2 142114Z 21009KT 35/21 A2996 RMK A01 T03460212  RH  046%=      5-min Rain = 0
KDO2 142115Z 21009KT 35/21 A2996 RMK A01 T03470208  RH  044%=      5-min Rain = 0
KDO2 142116Z 20008KT 35/21 A2996 RMK A01 T03480212  RH  045%=      5-min Rain = 0
KDO2 142117Z 19009KT 35/21 A2996 RMK A01 T03490212  RH  045%=      5-min Rain = 0
KDO2 142118Z 19009KT 35/21 A2996 RMK A01 T03500208  RH  044%=      5-min Rain = 0
KDO2 142119Z 19009KT 35/21 A2996 RMK A01 T03500209  RH  044%=      5-min Rain = 0
KDO2 142120Z 20009KT 35/21 A2996 RMK A01 T03490209  RH  044%=      5-min Rain = 0
KDO2 142121Z 19008KT 35/21 A2996 RMK A01 T03490211  RH  045%=      5-min Rain = 0
KDO2 142122Z 21009KT 35/21 A2996 RMK A01 T03490211  RH  045%=      5-min Rain = 0
KDO2 142123Z 20010KT 35/21 A2996 RMK A01 T03480209  RH  044%=      5-min Rain = 0
KDO2 142124Z 20009KT 35/21 A2996 RMK A01 T03480209  RH  044%=      5-min Rain = 0
KDO2 142125Z 19010KT 35/21 A2996 RMK A01 T03490211  RH  045%=      5-min Rain = 0
KDO2 142126Z 18011KT 35/21 A2996 RMK A01 T03500211  RH  045%=      5-min Rain = 0
KDO2 142127Z 19011KT 35/21 A2996 RMK A01 T03500211  RH  044%=      5-min Rain = 0
KDO2 142128Z 18011KT 35/22 A2996 RMK A01 T03500215  RH  045%=      5-min Rain = 0
KDO2 142129Z 20012KT 35/21 A2996 RMK A01 T03520214  RH  045%=      5-min Rain = 0
KDO2 142130Z 19010KT 35/21 A2996 RMK A01 T03520212  RH  044%=      5-min Rain = 0
KDO2 142131Z 19013KT 35/21 A2996 RMK A01 T03510213  RH  045%=      5-min Rain = 0
KDO2 142132Z 19013KT 35/21 A2996 RMK A01 T03500209  RH  044%=      5-min Rain = 0
KDO2 142133Z 18012KT 35/21 A2996 RMK A01 T03470209  RH  045%=      5-min Rain = 0
KDO2 142134Z 18010KT 35/21 A2996 RMK A01 T03470211  RH  045%=      5-min Rain = 0
KDO2 142135Z 20010KT 35/21 A2996 RMK A01 T03470212  RH  045%=      5-min Rain = 0
KDO2 142136Z 19010KT 35/21 A2996 RMK A01 T03490210  RH  044%=      5-min Rain = 0
KDO2 142137Z 18011KT 35/21 A2996 RMK A01 T03500209  RH  044%=      5-min Rain = 0
KDO2 142138Z 18008KT 35/21 A2996 RMK A01 T03490208  RH  044%=      5-min Rain = 0
KDO2 142139Z 17009G16KT 35/21 A2996 RMK A01 T03480210  RH  045%=      5-min Rain = 0
KDO2 142140Z 18014KT 35/21 A2996 RMK A01 T03480209  RH  044%=      5-min Rain = 0
KDO2 142141Z 18011KT 35/21 A2996 RMK A01 T03460207  RH  044%=      5-min Rain = 0
KDO2 142142Z 16011KT 35/21 A2996 RMK A01 T03450210  RH  046%=      5-min Rain = 0
KDO2 142143Z 17012KT 35/21 A2996 RMK A01 T03450209  RH  045%=      5-min Rain = 0
KDO2 142144Z 16011KT 35/21 A2996 RMK A01 T03460210  RH  045%=      5-min Rain = 0
KDO2 142145Z 18012KT 35/21 A2996 RMK A01 T03460210  RH  045%=      5-min Rain = 0
KDO2 142146Z 17012KT 35/21 A2996 RMK A01 T03460209  RH  045%=      5-min Rain = 0
KDO2 142147Z 17013KT 35/21 A2996 RMK A01 T03450208  RH  045%=      5-min Rain = 0
KDO2 142148Z 18012KT 34/21 A2996 RMK A01 T03430209  RH  045%=      5-min Rain = 0
KDO2 142149Z 18014KT 34/21 A2996 RMK A01 T03430210  RH  046%=      5-min Rain = 0
KDO2 142150Z 18014KT 34/21 A2996 RMK A01 T03420209  RH  046%=      5-min Rain = 0
KDO2 142151Z 17015KT 34/21 A2996 RMK A01 T03400209  RH  046%=      5-min Rain = 0
KDO2 142152Z 17016KT 34/21 A2996 RMK A01 T03380207  RH  047%=      5-min Rain = 0
KDO2 142153Z 17014KT 34/21 A2996 RMK A01 T03350207  RH  047%=      5-min Rain = 0
KDO2 142154Z 17012KT 33/21 A2996 RMK A01 T03330209  RH  048%=      5-min Rain = 0
KDO2 142155Z 18012KT 33/21 A2996 RMK A01 T03330210  RH  049%=      5-min Rain = 0
KDO2 142156Z 18013KT 33/21 A2996 RMK A01 T03330209  RH  048%=      5-min Rain = 0
KDO2 142157Z 18015KT 33/21 A2996 RMK A01 T03320207  RH  048%=      5-min Rain = 0
KDO2 142158Z 19014KT 33/21 A2996 RMK A01 T03310207  RH  048%=      5-min Rain = 0
KDO2 142159Z 19011KT 33/21 A2996 RMK A01 T03300209  RH  049%=      5-min Rain = 0
KDO2 142200Z 18012KT 33/21 A2996 RMK A01 T03300209  RH  049%=      5-min Rain = 0
KDO2 142201Z 18012KT 33/21 A2996 RMK A01 T03300208  RH  049%=      5-min Rain = 0
KDO2 142202Z 18012KT 33/21 A2996 RMK A01 T03310208  RH  049%=      5-min Rain = 0
KDO2 142203Z 18013KT 33/21 A2995 RMK A01 T03320206  RH  048%=      5-min Rain = 0
KDO2 142204Z 17014KT 33/21 A2996 RMK A01 T03320206  RH  048%=      5-min Rain = 0
KDO2 142205Z 17013KT 33/21 A2995 RMK A01 T03320206  RH  047%=      5-min Rain = 0
KDO2 142206Z 17014KT 33/20 A2996 RMK A01 T03320203  RH  047%=      5-min Rain = 0
KDO2 142207Z 18013KT 33/20 A2996 RMK A01 T03300203  RH  047%=      5-min Rain = 0
KDO2 142208Z 17013KT 33/20 A2996 RMK A01 T03290203  RH  048%=      5-min Rain = 0
KDO2 142209Z 18013KT 33/20 A2996 RMK A01 T03290203  RH  048%=      5-min Rain = 0
KDO2 142210Z 18014KT 33/20 A2996 RMK A01 T03290203  RH  048%=      5-min Rain = 0
KDO2 142211Z 19013KT 33/20 A2996 RMK A01 T03290202  RH  047%=      5-min Rain = 0
KDO2 142212Z 19014KT 33/20 A2996 RMK A01 T03290202  RH  047%=      5-min Rain = 0
KDO2 142213Z 18013KT 33/20 A2996 RMK A01 T03280200  RH  047%=      5-min Rain = 0
KDO2 142214Z 19011KT 33/20 A2996 RMK A01 T03280199  RH  047%=      5-min Rain = 0
KDO2 142215Z 19011KT 33/20 A2996 RMK A01 T03290202  RH  047%=      5-min Rain = 0
KDO2 142216Z 19011KT 33/20 A2996 RMK A01 T03300201  RH  047%=      5-min Rain = 0
KDO2 142217Z 18013KT 33/20 A2996 RMK A01 T03300201  RH  046%=      5-min Rain = 0
KDO2 142218Z 18012KT 33/20 A2996 RMK A01 T03300200  RH  047%=      5-min Rain = 0
KDO2 142219Z 19013KT 33/20 A2996 RMK A01 T03300202  RH  047%=      5-min Rain = 0
KDO2 142220Z 19013KT 33/20 A2996 RMK A01 T03300200  RH  046%=      5-min Rain = 0
KDO2 142221Z 18012KT 33/20 A2996 RMK A01 T03290202  RH  047%=      5-min Rain = 0
KDO2 142222Z 19011KT 33/20 A2996 RMK A01 T03300202  RH  047%=      5-min Rain = 0
KDO2 142223Z 18013KT 33/20 A2996 RMK A01 T03300201  RH  047%=      5-min Rain = 0
KDO2 142224Z 18011KT 33/20 A2996 RMK A01 T03300201  RH  047%=      5-min Rain = 0
KDO2 142225Z 18011KT 33/20 A2996 RMK A01 T03300201  RH  047%=      5-min Rain = 0
KDO2 142226Z 18012KT 33/20 A2996 RMK A01 T03300201  RH  047%=      5-min Rain = 0
KDO2 142227Z 17013KT 33/20 A2996 RMK A01 T03300202  RH  047%=      5-min Rain = 0
KDO2 142228Z 17013KT 33/20 A2996 RMK A01 T03290201  RH  047%=      5-min Rain = 0
KDO2 142229Z 17012KT 33/20 A2996 RMK A01 T03280200  RH  047%=      5-min Rain = 0
KDO2 142230Z 17012KT 33/20 A2996 RMK A01 T03280201  RH  047%=      5-min Rain = 0
KDO2 142231Z 17012KT 33/20 A2996 RMK A01 T03280200  RH  047%=      5-min Rain = 0
KDO2 142232Z 18013KT 33/20 A2996 RMK A01 T03280201  RH  047%=      5-min Rain = 0
KDO2 142233Z 17013KT 33/20 A2996 RMK A01 T03270197  RH  046%=      5-min Rain = 0
KDO2 142234Z 17013KT 33/20 A2996 RMK A01 T03260196  RH  046%=      5-min Rain = 0
KDO2 142235Z 18012KT 33/20 A2996 RMK A01 T03260196  RH  046%=      5-min Rain = 0
KDO2 142236Z 17014KT 33/20 A2996 RMK A01 T03250195  RH  046%=      5-min Rain = 0
KDO2 142237Z 17014KT 33/19 A2996 RMK A01 T03250194  RH  046%=      5-min Rain = 0
KDO2 142238Z 17014KT 33/19 A2995 RMK A01 T03250193  RH  046%=      5-min Rain = 0
KDO2 142239Z 17013KT 33/19 A2995 RMK A01 T03250194  RH  046%=      5-min Rain = 0
KDO2 142240Z 18011KT 33/20 A2995 RMK A01 T03250195  RH  046%=      5-min Rain = 0
KDO2 142241Z 17011KT 33/20 A2996 RMK A01 T03250195  RH  046%=      5-min Rain = 0
KDO2 142242Z 18013KT 33/19 A2996 RMK A01 T03250194  RH  046%=      5-min Rain = 0
KDO2 142243Z 18012KT 33/19 A2996 RMK A01 T03260194  RH  046%=      5-min Rain = 0
KDO2 142244Z 18013KT 33/19 A2996 RMK A01 T03260194  RH  046%=      5-min Rain = 0
KDO2 142245Z 18011KT 33/19 A2996 RMK A01 T03260194  RH  046%=      5-min Rain = 0
KDO2 142246Z 18009KT 33/19 A2996 RMK A01 T03250194  RH  046%=      5-min Rain = 0
KDO2 142247Z 19010KT 33/20 A2996 RMK A01 T03260195  RH  046%=      5-min Rain = 0
KDO2 142248Z 19010KT 33/20 A2996 RMK A01 T03260195  RH  046%=      5-min Rain = 0
KDO2 142249Z 18010KT 33/20 A2996 RMK A01 T03260195  RH  046%=      5-min Rain = 0
KDO2 142250Z 17008KT 33/20 A2996 RMK A01 T03260195  RH  046%=      5-min Rain = 0
KDO2 142251Z 17011KT 33/19 A2996 RMK A01 T03260194  RH  046%=      5-min Rain = 0
KDO2 142252Z 17008KT 33/19 A2996 RMK A01 T03260193  RH  045%=      5-min Rain = 0
KDO2 142253Z 16008KT 33/20 A2996 RMK A01 T03260195  RH  046%=      5-min Rain = 0
KDO2 142254Z 16007KT 33/20 A2996 RMK A01 T03260195  RH  046%=      5-min Rain = 0
KDO2 142255Z 18008KT 33/19 A2996 RMK A01 T03260194  RH  046%=      5-min Rain = 0
KDO2 142256Z 18008KT 33/20 A2996 RMK A01 T03260196  RH  046%=      5-min Rain = 0
KDO2 142257Z 18010KT 33/19 A2996 RMK A01 T03270194  RH  046%=      5-min Rain = 0
KDO2 142258Z 18012KT 33/19 A2996 RMK A01 T03270193  RH  045%=      5-min Rain = 0
KDO2 142259Z 17011KT 33/19 A2996 RMK A01 T03260193  RH  045%=      5-min Rain = 0
KDO2 142300Z 17012KT 33/19 A2996 RMK A01 T03260193  RH  045%=      5-min Rain = 0
KDO2 142301Z 17012KT 33/19 A2996 RMK A01 T03260193  RH  045%=      5-min Rain = 0
KDO2 142302Z 18013KT 33/19 A2996 RMK A01 T03260192  RH  045%=      5-min Rain = 0
KDO2 142303Z 18012KT 33/19 A2996 RMK A01 T03270192  RH  045%=      5-min Rain = 0
KDO2 142304Z 18011KT 33/19 A2996 RMK A01 T03260192  RH  045%=      5-min Rain = 0
KDO2 142305Z 18011KT 33/19 A2996 RMK A01 T03260193  RH  045%=      5-min Rain = 0
KDO2 142306Z 18012KT 33/19 A2996 RMK A01 T03260192  RH  045%=      5-min Rain = 0
KDO2 142307Z 18011KT 33/19 A2996 RMK A01 T03260193  RH  045%=      5-min Rain = 0
KDO2 142308Z 18010KT 33/19 A2996 RMK A01 T03250191  RH  045%=      5-min Rain = 0
KDO2 142309Z 18009KT 33/19 A2996 RMK A01 T03260194  RH  046%=      5-min Rain = 0
KDO2 142310Z 18009KT 33/19 A2996 RMK A01 T03260194  RH  046%=      5-min Rain = 0
KDO2 142311Z 18008KT 33/19 A2996 RMK A01 T03260194  RH  046%=      5-min Rain = 0
KDO2 142312Z 18008KT 33/20 A2996 RMK A01 T03260195  RH  046%=      5-min Rain = 0
KDO2 142313Z 18008KT 33/20 A2996 RMK A01 T03260195  RH  046%=      5-min Rain = 0
KDO2 142314Z 18008KT 33/19 A2996 RMK A01 T03270194  RH  046%=      5-min Rain = 0
KDO2 142315Z 17008KT 33/20 A2996 RMK A01 T03260198  RH  047%=      5-min Rain = 0
KDO2 142316Z 17010KT 33/19 A2996 RMK A01 T03260194  RH  046%=      5-min Rain = 0
KDO2 142317Z 17011KT 33/19 A2996 RMK A01 T03270192  RH  045%=      5-min Rain = 0
KDO2 142318Z 17011KT 33/19 A2996 RMK A01 T03260192  RH  045%=      5-min Rain = 0
KDO2 142319Z 17009KT 33/19 A2996 RMK A01 T03260193  RH  045%=      5-min Rain = 0
KDO2 142320Z 16010KT 33/19 A2996 RMK A01 T03260192  RH  045%=      5-min Rain = 0
KDO2 142321Z 17011KT 33/19 A2996 RMK A01 T03260191  RH  045%=      5-min Rain = 0
KDO2 142322Z 17010KT 33/19 A2996 RMK A01 T03250192  RH  045%=      5-min Rain = 0
KDO2 142323Z 17010KT 33/19 A2996 RMK A01 T03250193  RH  045%=      5-min Rain = 0
KDO2 142324Z 18009KT 33/19 A2996 RMK A01 T03250192  RH  045%=      5-min Rain = 0
KDO2 142325Z 17010KT 33/19 A2996 RMK A01 T03250192  RH  045%=      5-min Rain = 0
KDO2 142326Z 18010KT 33/19 A2996 RMK A01 T03250192  RH  045%=      5-min Rain = 0
KDO2 142327Z 18010KT 33/19 A2996 RMK A01 T03250192  RH  045%=      5-min Rain = 0
KDO2 142328Z 18008KT 33/19 A2996 RMK A01 T03250192  RH  045%=      5-min Rain = 0
KDO2 142329Z 18006KT 33/19 A2996 RMK A01 T03250194  RH  046%=      5-min Rain = 0
KDO2 142330Z 19008KT 33/20 A2996 RMK A01 T03250195  RH  046%=      5-min Rain = 0
KDO2 142331Z 19010KT 33/19 A2996 RMK A01 T03250194  RH  046%=      5-min Rain = 0
KDO2 142332Z 19010KT 33/19 A2996 RMK A01 T03260193  RH  046%=      5-min Rain = 0
KDO2 142333Z 19009KT 33/19 A2997 RMK A01 T03260192  RH  045%=      5-min Rain = 0
KDO2 142334Z 18010KT 33/19 A2997 RMK A01 T03260192  RH  045%=      5-min Rain = 0
KDO2 142335Z 17010KT 33/19 A2997 RMK A01 T03260191  RH  045%=      5-min Rain = 0
KDO2 142336Z 18009KT 33/19 A2997 RMK A01 T03260191  RH  045%=      5-min Rain = 0
KDO2 142337Z 17009KT 33/19 A2997 RMK A01 T03260191  RH  045%=      5-min Rain = 0
KDO2 142338Z 17009KT 33/19 A2997 RMK A01 T03260193  RH  045%=      5-min Rain = 0
KDO2 142339Z 17008KT 33/19 A2997 RMK A01 T03250193  RH  045%=      5-min Rain = 0
KDO2 142340Z 18007KT 33/19 A2997 RMK A01 T03260192  RH  045%=      5-min Rain = 0
KDO2 142341Z 17008KT 33/19 A2997 RMK A01 T03260194  RH  046%=      5-min Rain = 0
KDO2 142342Z 18008KT 33/19 A2997 RMK A01 T03260193  RH  046%=      5-min Rain = 0
KDO2 142343Z 18007KT 33/19 A2997 RMK A01 T03260194  RH  046%=      5-min Rain = 0
KDO2 142344Z 18006KT 33/19 A2996 RMK A01 T03260194  RH  046%=      5-min Rain = 0
KDO2 142345Z 20007KT 33/20 A2996 RMK A01 T03260197  RH  047%=      5-min Rain = 0
KDO2 142346Z 19007KT 33/19 A2996 RMK A01 T03260194  RH  046%=      5-min Rain = 0
KDO2 142347Z 18006KT 33/20 A2996 RMK A01 T03260195  RH  046%=      5-min Rain = 0
KDO2 142348Z 18007KT 33/20 A2996 RMK A01 T03260195  RH  046%=      5-min Rain = 0
KDO2 142349Z 17006KT 33/20 A2996 RMK A01 T03250195  RH  046%=      5-min Rain = 0
KDO2 142350Z 17007KT 33/19 A2996 RMK A01 T03260193  RH  046%=      5-min Rain = 0
KDO2 142351Z 16008KT 33/19 A2996 RMK A01 T03250192  RH  045%=      5-min Rain = 0
KDO2 142352Z 17009KT 33/19 A2996 RMK A01 T03260193  RH  045%=      5-min Rain = 0
KDO2 142353Z 17008KT 33/19 A2996 RMK A01 T03260193  RH  045%=      5-min Rain = 0
KDO2 142354Z 17006KT 33/19 A2996 RMK A01 T03260193  RH  046%=      5-min Rain = 0
KDO2 142355Z 17005KT 33/20 A2996 RMK A01 T03260195  RH  046%=      5-min Rain = 0
KDO2 142356Z 18006KT 33/20 A2996 RMK A01 T03260196  RH  046%=      5-min Rain = 0
KDO2 142357Z 18006KT 33/20 A2996 RMK A01 T03260196  RH  046%=      5-min Rain = 0
KDO2 142358Z 18008KT 33/19 A2996 RMK A01 T03250193  RH  046%=      5-min Rain = 0
KDO2 142359Z 18006KT 33/19 A2996 RMK A01 T03250194  RH  046%=      5-min Rain = 0
KDO2 150000Z 18007KT 33/20 A2996 RMK A01 T03250195  RH  046%=      5-min Rain = 0
KDO2 150001Z 18006KT 33/20 A2996 RMK A01 T03250195  RH  046%=      5-min Rain = 0
KDO2 150002Z 18005KT 33/20 A2996 RMK A01 T03250196  RH  047%=      5-min Rain = 0
KDO2 150003Z 18005KT 33/20 A2996 RMK A01 T03250196  RH  047%=      5-min Rain = 0
KDO2 150004Z 19006KT 32/20 A2996 RMK A01 T03240197  RH  047%=      5-min Rain = 0
KDO2 150005Z 20006KT 32/20 A2996 RMK A01 T03240196  RH  047%=      5-min Rain = 0
KDO2 150006Z 19006KT 32/20 A2996 RMK A01 T03240197  RH  047%=      5-min Rain = 0
KDO2 150007Z 20004KT 32/20 A2996 RMK A01 T03240198  RH  047%=      5-min Rain = 0
KDO2 150008Z 21005KT 32/20 A2996 RMK A01 T03240198  RH  048%=      5-min Rain = 0
KDO2 150009Z 21005KT 32/20 A2996 RMK A01 T03240199  RH  048%=      5-min Rain = 0
KDO2 150010Z 20006KT 32/20 A2996 RMK A01 T03230199  RH  048%=      5-min Rain = 0
KDO2 150011Z 21008KT 32/20 A2996 RMK A01 T03230195  RH  047%=      5-min Rain = 0
KDO2 150012Z 20008KT 32/19 A2996 RMK A01 T03230194  RH  047%=      5-min Rain = 0
KDO2 150013Z 20009KT 32/19 A2996 RMK A01 T03230194  RH  047%=      5-min Rain = 0
KDO2 150014Z 20009KT 32/19 A2996 RMK A01 T03230193  RH  046%=      5-min Rain = 0
KDO2 150015Z 20009KT 32/19 A2996 RMK A01 T03230192  RH  046%=      5-min Rain = 0
KDO2 150016Z 20008KT 32/19 A2996 RMK A01 T03230193  RH  046%=      5-min Rain = 0
KDO2 150017Z 19007KT 32/19 A2996 RMK A01 T03230193  RH  046%=      5-min Rain = 0
KDO2 150018Z 19009KT 32/19 A2996 RMK A01 T03230193  RH  046%=      5-min Rain = 0
KDO2 150019Z 20009KT 32/19 A2996 RMK A01 T03230192  RH  046%=      5-min Rain = 0
KDO2 150020Z 19010KT 32/19 A2995 RMK A01 T03230191  RH  046%=      5-min Rain = 0
KDO2 150021Z 19009KT 32/19 A2995 RMK A01 T03230191  RH  046%=      5-min Rain = 0
KDO2 150022Z 19008KT 32/19 A2996 RMK A01 T03230191  RH  046%=      5-min Rain = 0
KDO2 150023Z 18007KT 32/19 A2996 RMK A01 T03230192  RH  046%=      5-min Rain = 0
KDO2 150024Z 18008KT 32/19 A2996 RMK A01 T03230192  RH  046%=      5-min Rain = 0
KDO2 150025Z 18008KT 32/19 A2996 RMK A01 T03230192  RH  046%=      5-min Rain = 0
KDO2 150026Z 18009KT 32/19 A2995 RMK A01 T03230192  RH  046%=      5-min Rain = 0
KDO2 150027Z 18008KT 32/19 A2995 RMK A01 T03230191  RH  046%=      5-min Rain = 0
KDO2 150028Z 18007KT 32/19 A2995 RMK A01 T03230192  RH  046%=      5-min Rain = 0
KDO2 150029Z 18007KT 32/19 A2995 RMK A01 T03220192  RH  046%=      5-min Rain = 0
KDO2 150030Z 18007KT 32/19 A2995 RMK A01 T03220191  RH  046%=      5-min Rain = 0
KDO2 150031Z 18006KT 32/19 A2995 RMK A01 T03220192  RH  046%=      5-min Rain = 0
KDO2 150032Z 18005KT 32/19 A2995 RMK A01 T03220193  RH  047%=      5-min Rain = 0
KDO2 150033Z 19005KT 32/19 A2995 RMK A01 T03210192  RH  047%=      5-min Rain = 0
KDO2 150034Z 19007KT 32/19 A2995 RMK A01 T03210191  RH  046%=      5-min Rain = 0
KDO2 150035Z 19008KT 32/19 A2995 RMK A01 T03210190  RH  046%=      5-min Rain = 0
KDO2 150036Z 18008KT 32/19 A2995 RMK A01 T03200188  RH  046%=      5-min Rain = 0
KDO2 150037Z 18008KT 32/19 A2995 RMK A01 T03210188  RH  045%=      5-min Rain = 0
KDO2 150038Z 18009KT 32/19 A2995 RMK A01 T03200187  RH  045%=      5-min Rain = 0
KDO2 150039Z 19009KT 32/19 A2995 RMK A01 T03200187  RH  045%=      5-min Rain = 0
KDO2 150040Z 19008KT 32/19 A2995 RMK A01 T03210187  RH  045%=      5-min Rain = 0
KDO2 150041Z 18007KT 32/19 A2995 RMK A01 T03200188  RH  045%=      5-min Rain = 0
KDO2 150042Z 18006KT 32/19 A2995 RMK A01 T03210189  RH  046%=      5-min Rain = 0
KDO2 150043Z 18006KT 32/19 A2995 RMK A01 T03210189  RH  046%=      5-min Rain = 0
KDO2 150044Z 19006KT 32/19 A2995 RMK A01 T03200189  RH  046%=      5-min Rain = 0
KDO2 150045Z 19007KT 32/19 A2995 RMK A01 T03200189  RH  046%=      5-min Rain = 0
KDO2 150046Z 19006KT 32/19 A2995 RMK A01 T03190189  RH  046%=      5-min Rain = 0
KDO2 150047Z 18006KT 32/19 A2995 RMK A01 T03190189  RH  046%=      5-min Rain = 0
KDO2 150048Z 17005KT 32/19 A2995 RMK A01 T03190189  RH  046%=      5-min Rain = 0
KDO2 150049Z 18005KT 32/19 A2995 RMK A01 T03190189  RH  046%=      5-min Rain = 0
KDO2 150050Z 18005KT 32/19 A2995 RMK A01 T03180189  RH  046%=      5-min Rain = 0
KDO2 150051Z 18004KT 32/19 A2995 RMK A01 T03180190  RH  047%=      5-min Rain = 0
KDO2 150052Z 18003KT 32/19 A2995 RMK A01 T03180190  RH  047%=      5-min Rain = 0
KDO2 150053Z 16002KT 32/19 A2995 RMK A01 T03170191  RH  047%=      5-min Rain = 0
KDO2 150054Z 16002KT 32/19 A2995 RMK A01 T03170191  RH  047%=      5-min Rain = 0
KDO2 150055Z 15003KT 32/19 A2996 RMK A01 T03160192  RH  048%=      5-min Rain = 0
KDO2 150056Z 13003KT 32/19 A2996 RMK A01 T03160191  RH  048%=      5-min Rain = 0
KDO2 150057Z 12003KT 32/19 A2996 RMK A01 T03150190  RH  048%=      5-min Rain = 0
KDO2 150058Z 11004KT 31/19 A2996 RMK A01 T03140191  RH  048%=      5-min Rain = 0
KDO2 150059Z 11005KT 31/19 A2996 RMK A01 T03130190  RH  048%=      5-min Rain = 0
KDO2 150100Z 11006KT 31/19 A2996 RMK A01 T03130190  RH  048%=      5-min Rain = 0
KDO2 150101Z 11006KT 31/19 A2996 RMK A01 T03120189  RH  048%=      5-min Rain = 0
KDO2 150102Z 11006KT 31/19 A2997 RMK A01 T03120189  RH  048%=      5-min Rain = 0
KDO2 150103Z 11006KT 31/19 A2997 RMK A01 T03120188  RH  048%=      5-min Rain = 0
KDO2 150104Z 10006KT 31/19 A2997 RMK A01 T03120188  RH  048%=      5-min Rain = 0
KDO2 150105Z 10006KT 31/19 A2997 RMK A01 T03130188  RH  047%=      5-min Rain = 0
KDO2 150106Z 10005KT 31/19 A2997 RMK A01 T03140188  RH  047%=      5-min Rain = 0
KDO2 150107Z 10005KT 31/19 A2997 RMK A01 T03140188  RH  047%=      5-min Rain = 0
KDO2 150108Z 09004KT 31/19 A2997 RMK A01 T03140187  RH  047%=      5-min Rain = 0
KDO2 150109Z 08005KT 31/19 A2997 RMK A01 T03140188  RH  047%=      5-min Rain = 0
KDO2 150110Z 08006KT 31/19 A2998 RMK A01 T03140189  RH  048%=      5-min Rain = 0
KDO2 150111Z 08007KT 31/20 A2998 RMK A01 T03130196  RH  050%=      5-min Rain = 0
KDO2 150112Z 08007KT 31/20 A2998 RMK A01 T03110201  RH  052%=      5-min Rain = 0
KDO2 150113Z 08008KT 31/20 A2998 RMK A01 T03100203  RH  053%=      5-min Rain = 0
KDO2 150114Z 08008KT 31/21 A2998 RMK A01 T03090205  RH  054%=      5-min Rain = 0
KDO2 150115Z 09007KT 31/21 A2998 RMK A01 T03080206  RH  054%=      5-min Rain = 0
KDO2 150116Z 09007KT 31/21 A2998 RMK A01 T03070205  RH  055%=      5-min Rain = 0
KDO2 150117Z 09007KT 31/21 A2998 RMK A01 T03070206  RH  055%=      5-min Rain = 0
KDO2 150118Z 09007KT 31/21 A2998 RMK A01 T03060206  RH  055%=      5-min Rain = 0
KDO2 150119Z 09007KT 31/21 A2998 RMK A01 T03060206  RH  055%=      5-min Rain = 0
KDO2 150120Z 09006KT 31/21 A2998 RMK A01 T03060206  RH  055%=      5-min Rain = 0
KDO2 150121Z 09006KT 31/21 A2998 RMK A01 T03050207  RH  056%=      5-min Rain = 0
KDO2 150122Z 09009KT 31/21 A2998 RMK A01 T03050207  RH  056%=      5-min Rain = 0
KDO2 150123Z 08008KT 30/21 A2998 RMK A01 T03040207  RH  056%=      5-min Rain = 0
KDO2 150124Z 09006KT 30/21 A2998 RMK A01 T03040207  RH  056%=      5-min Rain = 0
KDO2 150125Z 09007KT 30/21 A2998 RMK A01 T03040207  RH  056%=      5-min Rain = 0
KDO2 150126Z 10006KT 30/21 A2998 RMK A01 T03030207  RH  057%=      5-min Rain = 0
KDO2 150127Z 11006KT 30/21 A2998 RMK A01 T03030207  RH  057%=      5-min Rain = 0
KDO2 150128Z 11006KT 30/21 A2998 RMK A01 T03030207  RH  057%=      5-min Rain = 0
KDO2 150129Z 11006KT 30/21 A2998 RMK A01 T03030207  RH  057%=      5-min Rain = 0
KDO2 150130Z 10005KT 30/21 A2998 RMK A01 T03020207  RH  057%=      5-min Rain = 0
KDO2 150131Z 10006KT 30/21 A2998 RMK A01 T03020207  RH  057%=      5-min Rain = 0
KDO2 150132Z 10006KT 30/21 A2999 RMK A01 T03020207  RH  057%=      5-min Rain = 0
KDO2 150133Z 09006KT 30/21 A2999 RMK A01 T03010207  RH  057%=      5-min Rain = 0
KDO2 150134Z 09006KT 30/21 A2999 RMK A01 T03010207  RH  057%=      5-min Rain = 0
KDO2 150135Z 09006KT 30/21 A2999 RMK A01 T03000207  RH  057%=      5-min Rain = 0
KDO2 150136Z 09006KT 30/21 A2999 RMK A01 T03000208  RH  058%=      5-min Rain = 0
KDO2 150137Z 09006KT 30/21 A2999 RMK A01 T03000207  RH  058%=      5-min Rain = 0
KDO2 150138Z 09005KT 30/21 A2999 RMK A01 T02990208  RH  058%=      5-min Rain = 0
KDO2 150139Z 09004KT 30/21 A2999 RMK A01 T02990208  RH  058%=      5-min Rain = 0
KDO2 150140Z 09004KT 30/21 A2999 RMK A01 T02990208  RH  058%=      5-min Rain = 0
KDO2 150141Z 08004KT 30/21 A2999 RMK A01 T02980208  RH  058%=      5-min Rain = 0
KDO2 150142Z 09004KT 30/21 A2999 RMK A01 T02980208  RH  058%=      5-min Rain = 0
KDO2 150143Z 09005KT 30/21 A2999 RMK A01 T02970208  RH  059%=      5-min Rain = 0
KDO2 150144Z 09005KT 30/21 A30 RMK A01 T02970208  RH  059%=      5-min Rain = 0
KDO2 150145Z 08005KT 30/21 A30 RMK A01 T02960209  RH  059%=      5-min Rain = 0
KDO2 150146Z 08005KT 30/21 A30 RMK A01 T02960209  RH  059%=      5-min Rain = 0
KDO2 150147Z 08006KT 30/21 A30 RMK A01 T02960209  RH  060%=      5-min Rain = 0
KDO2 150148Z 08006KT 30/21 A30 RMK A01 T02950209  RH  060%=      5-min Rain = 0
KDO2 150149Z 08006KT 30/21 A30 RMK A01 T02950209  RH  060%=      5-min Rain = 0
KDO2 150150Z 08005KT 30/21 A30 RMK A01 T02950210  RH  060%=      5-min Rain = 0
KDO2 150151Z 08005KT 29/21 A30 RMK A01 T02940210  RH  060%=      5-min Rain = 0
KDO2 150152Z 08005KT 29/21 A30 RMK A01 T02940209  RH  060%=      5-min Rain = 0
KDO2 150153Z 08005KT 29/21 A30 RMK A01 T02940210  RH  061%=      5-min Rain = 0
KDO2 150154Z 09005KT 29/21 A30 RMK A01 T02930210  RH  061%=      5-min Rain = 0
KDO2 150155Z 09005KT 29/21 A30 RMK A01 T02930210  RH  061%=      5-min Rain = 0
KDO2 150156Z 09004KT 29/21 A30 RMK A01 T02930210  RH  061%=      5-min Rain = 0
KDO2 150157Z 09004KT 29/21 A30 RMK A01 T02930210  RH  061%=      5-min Rain = 0
KDO2 150158Z 09005KT 29/21 A30 RMK A01 T02930210  RH  061%=      5-min Rain = 0
KDO2 150159Z 08005KT 29/21 A30 RMK A01 T02930210  RH  061%=      5-min Rain = 0
KDO2 150200Z 08005KT 29/21 A30 RMK A01 T02930210  RH  061%=      5-min Rain = 0
KDO2 150201Z 08005KT 29/21 A30 RMK A01 T02920210  RH  061%=      5-min Rain = 0
KDO2 150202Z 07006KT 29/21 A3001 RMK A01 T02920210  RH  061%=      5-min Rain = 0
KDO2 150203Z 07006KT 29/21 A3001 RMK A01 T02920210  RH  061%=      5-min Rain = 0
KDO2 150204Z 07006KT 29/21 A3001 RMK A01 T02920210  RH  061%=      5-min Rain = 0
KDO2 150205Z 07005KT 29/21 A3001 RMK A01 T02920210  RH  062%=      5-min Rain = 0
KDO2 150206Z 07005KT 29/21 A3001 RMK A01 T02920211  RH  062%=      5-min Rain = 0
KDO2 150207Z 07004KT 29/21 A3001 RMK A01 T02920210  RH  061%=      5-min Rain = 0
KDO2 150208Z 08004KT 29/21 A3001 RMK A01 T02920210  RH  061%=      5-min Rain = 0
KDO2 150209Z 07004KT 29/21 A3001 RMK A01 T02920210  RH  061%=      5-min Rain = 0
KDO2 150210Z 07004KT 29/21 A3001 RMK A01 T02910210  RH  062%=      5-min Rain = 0
KDO2 150211Z 07004KT 29/21 A3001 RMK A01 T02900210  RH  062%=      5-min Rain = 0
KDO2 150212Z 07004KT 29/21 A3001 RMK A01 T02890210  RH  062%=      5-min Rain = 0
KDO2 150213Z 07004KT 29/21 A3001 RMK A01 T02890211  RH  063%=      5-min Rain = 0
KDO2 150214Z 07005KT 29/21 A3001 RMK A01 T02880210  RH  063%=      5-min Rain = 0
KDO2 150215Z 08005KT 29/21 A3002 RMK A01 T02880210  RH  063%=      5-min Rain = 0
KDO2 150216Z 08005KT 29/21 A3002 RMK A01 T02870210  RH  063%=      5-min Rain = 0
KDO2 150217Z 07005KT 29/21 A3002 RMK A01 T02870210  RH  063%=      5-min Rain = 0
KDO2 150218Z 07005KT 29/21 A3002 RMK A01 T02860210  RH  063%=      5-min Rain = 0
KDO2 150219Z 07005KT 29/21 A3002 RMK A01 T02850210  RH  064%=      5-min Rain = 0
KDO2 150220Z 07005KT 29/21 A3002 RMK A01 T02850210  RH  064%=      5-min Rain = 0
KDO2 150221Z 06004KT 28/21 A3002 RMK A01 T02840210  RH  064%=      5-min Rain = 0
KDO2 150222Z 07005KT 28/21 A3002 RMK A01 T02840210  RH  064%=      5-min Rain = 0
KDO2 150223Z 07005KT 28/21 A3002 RMK A01 T02840210  RH  064%=      5-min Rain = 0
KDO2 150224Z 07005KT 28/21 A3002 RMK A01 T02840210  RH  064%=      5-min Rain = 0
KDO2 150225Z 08005KT 28/21 A3002 RMK A01 T02840210  RH  064%=      5-min Rain = 0
KDO2 150226Z 08006KT 28/21 A3002 RMK A01 T02840211  RH  065%=      5-min Rain = 0
KDO2 150227Z 08006KT 28/21 A3003 RMK A01 T02840211  RH  065%=      5-min Rain = 0
KDO2 150228Z 08006KT 28/21 A3003 RMK A01 T02840211  RH  065%=      5-min Rain = 0
KDO2 150229Z 08006KT 28/21 A3003 RMK A01 T02840211  RH  065%=      5-min Rain = 0
KDO2 150230Z 08006KT 28/21 A3003 RMK A01 T02840211  RH  065%=      5-min Rain = 0
KDO2 150231Z 08006KT 28/21 A3003 RMK A01 T02840212  RH  065%=      5-min Rain = 0
KDO2 150232Z 08006KT 28/21 A3003 RMK A01 T02840212  RH  065%=      5-min Rain = 0
KDO2 150233Z 08005KT 28/21 A3003 RMK A01 T02840211  RH  065%=      5-min Rain = 0
KDO2 150234Z 08005KT 28/21 A3003 RMK A01 T02840212  RH  065%=      5-min Rain = 0
KDO2 150235Z 09005KT 28/21 A3003 RMK A01 T02840211  RH  065%=      5-min Rain = 0
KDO2 150236Z 09005KT 29/21 A3003 RMK A01 T02850212  RH  065%=      5-min Rain = 0
KDO2 150237Z 09005KT 28/21 A3003 RMK A01 T02840212  RH  065%=      5-min Rain = 0
KDO2 150238Z 10005KT 29/21 A3003 RMK A01 T02850212  RH  065%=      5-min Rain = 0
KDO2 150239Z 10005KT 28/21 A3003 RMK A01 T02840212  RH  065%=      5-min Rain = 0
KDO2 150240Z 10005KT 28/21 A3003 RMK A01 T02840212  RH  065%=      5-min Rain = 0
KDO2 150241Z 10005KT 28/21 A3003 RMK A01 T02840212  RH  065%=      5-min Rain = 0
KDO2 150242Z 10005KT 28/21 A3003 RMK A01 T02840212  RH  065%=      5-min Rain = 0
KDO2 150243Z 10004KT 28/21 A3003 RMK A01 T02830212  RH  065%=      5-min Rain = 0
KDO2 150244Z 10005KT 28/21 A3003 RMK A01 T02830212  RH  065%=      5-min Rain = 0
KDO2 150245Z 10005KT 28/21 A3003 RMK A01 T02830212  RH  065%=      5-min Rain = 0
KDO2 150246Z 10004KT 28/21 A3003 RMK A01 T02830212  RH  066%=      5-min Rain = 0
KDO2 150247Z 10004KT 28/21 A3003 RMK A01 T02820212  RH  066%=      5-min Rain = 0
KDO2 150248Z 10004KT 28/21 A3003 RMK A01 T02820212  RH  066%=      5-min Rain = 0
KDO2 150249Z 10004KT 28/21 A3003 RMK A01 T02820212  RH  066%=      5-min Rain = 0
KDO2 150250Z 11004KT 28/21 A3003 RMK A01 T02820212  RH  066%=      5-min Rain = 0
KDO2 150251Z 11004KT 28/21 A3003 RMK A01 T02810212  RH  066%=      5-min Rain = 0
KDO2 150252Z 11004KT 28/21 A3004 RMK A01 T02810212  RH  066%=      5-min Rain = 0
KDO2 150253Z 11004KT 28/21 A3004 RMK A01 T02810212  RH  066%=      5-min Rain = 0
KDO2 150254Z 10004KT 28/21 A3004 RMK A01 T02810212  RH  066%=      5-min Rain = 0
KDO2 150255Z 10004KT 28/21 A3004 RMK A01 T02800212  RH  066%=      5-min Rain = 0
KDO2 150256Z 10004KT 28/21 A3004 RMK A01 T02800211  RH  066%=      5-min Rain = 0
KDO2 150257Z 11004KT 28/21 A3004 RMK A01 T02790211  RH  066%=      5-min Rain = 0
KDO2 150258Z 11004KT 28/21 A3004 RMK A01 T02790212  RH  067%=      5-min Rain = 0
KDO2 150259Z 11004KT 28/21 A3004 RMK A01 T02790211  RH  067%=      5-min Rain = 0
KDO2 150300Z 10003KT 28/21 A3004 RMK A01 T02790212  RH  067%=      5-min Rain = 0
KDO2 150301Z 10003KT 28/21 A3004 RMK A01 T02790211  RH  067%=      5-min Rain = 0
KDO2 150302Z 09003KT 28/21 A3004 RMK A01 T02790211  RH  067%=      5-min Rain = 0
KDO2 150303Z 09003KT 28/21 A3004 RMK A01 T02790211  RH  067%=      5-min Rain = 0
KDO2 150304Z 10004KT 28/21 A3004 RMK A01 T02780212  RH  067%=      5-min Rain = 0
KDO2 150305Z 10004KT 28/21 A3004 RMK A01 T02780212  RH  067%=      5-min Rain = 0
KDO2 150306Z 11004KT 28/21 A3004 RMK A01 T02790212  RH  067%=      5-min Rain = 0
KDO2 150307Z 12004KT 28/21 A3004 RMK A01 T02790212  RH  067%=      5-min Rain = 0
KDO2 150308Z 12003KT 28/21 A3004 RMK A01 T02790212  RH  067%=      5-min Rain = 0
KDO2 150309Z 13002KT 28/21 A3004 RMK A01 T02780211  RH  067%=      5-min Rain = 0
KDO2 150310Z 13002KT 28/21 A3004 RMK A01 T02780211  RH  067%=      5-min Rain = 0
KDO2 150311Z 12002KT 28/21 A3004 RMK A01 T02780211  RH  067%=      5-min Rain = 0
KDO2 150312Z 11002KT 28/21 A3004 RMK A01 T02790210  RH  066%=      5-min Rain = 0
KDO2 150313Z 10002KT 28/21 A3004 RMK A01 T02790210  RH  066%=      5-min Rain = 0
KDO2 150314Z 09002KT 28/21 A3004 RMK A01 T02790209  RH  066%=      5-min Rain = 0
KDO2 150315Z 09002KT 28/21 A3004 RMK A01 T02780210  RH  066%=      5-min Rain = 0
KDO2 150316Z 08002KT 28/21 A3005 RMK A01 T02790210  RH  066%=      5-min Rain = 0
KDO2 150317Z 09002KT 28/21 A3005 RMK A01 T02780210  RH  066%=      5-min Rain = 0
KDO2 150318Z 09003KT 28/21 A3005 RMK A01 T02780209  RH  066%=      5-min Rain = 0
KDO2 150319Z 09003KT 28/21 A3005 RMK A01 T02770209  RH  067%=      5-min Rain = 0
KDO2 150320Z 09004KT 28/21 A3005 RMK A01 T02760209  RH  067%=      5-min Rain = 0
KDO2 150321Z 08004KT 28/21 A3005 RMK A01 T02750209  RH  067%=      5-min Rain = 0
KDO2 150322Z 08003KT 28/21 A3005 RMK A01 T02760210  RH  067%=      5-min Rain = 0
KDO2 150323Z 08003KT 28/21 A3005 RMK A01 T02750209  RH  067%=      5-min Rain = 0
KDO2 150324Z 07003KT 28/21 A3005 RMK A01 T02750210  RH  068%=      5-min Rain = 0
KDO2 150325Z 07002KT 28/21 A3005 RMK A01 T02750210  RH  068%=      5-min Rain = 0
KDO2 150326Z 07002KT 27/21 A3005 RMK A01 T02740210  RH  068%=      5-min Rain = 0
KDO2 150327Z 07002KT 27/21 A3005 RMK A01 T02740210  RH  068%=      5-min Rain = 0
KDO2 150328Z 07002KT 27/21 A3005 RMK A01 T02740210  RH  068%=      5-min Rain = 0
KDO2 150329Z 07002KT 27/21 A3005 RMK A01 T02740210  RH  068%=      5-min Rain = 0
KDO2 150330Z 07001KT 27/21 A3005 RMK A01 T02730210  RH  068%=      5-min Rain = 0
KDO2 150331Z 07001KT 27/21 A3006 RMK A01 T02730210  RH  068%=      5-min Rain = 0
KDO2 150332Z 08002KT 27/21 A3006 RMK A01 T02730210  RH  068%=      5-min Rain = 0
KDO2 150333Z 09002KT 27/21 A3006 RMK A01 T02730211  RH  069%=      5-min Rain = 0
KDO2 150334Z 09002KT 27/21 A3006 RMK A01 T02720210  RH  069%=      5-min Rain = 0
KDO2 150335Z 09003KT 27/21 A3006 RMK A01 T02720210  RH  069%=      5-min Rain = 0
KDO2 150336Z 08003KT 27/21 A3006 RMK A01 T02730210  RH  069%=      5-min Rain = 0
KDO2 150337Z 08003KT 27/21 A3006 RMK A01 T02730209  RH  068%=      5-min Rain = 0
KDO2 150338Z 08003KT 27/21 A3006 RMK A01 T02730209  RH  068%=      5-min Rain = 0
KDO2 150339Z 07004KT 27/21 A3006 RMK A01 T02720209  RH  068%=      5-min Rain = 0
KDO2 150340Z 07005KT 27/21 A3006 RMK A01 T02710209  RH  069%=      5-min Rain = 0
KDO2 150341Z 07005KT 27/21 A3006 RMK A01 T02710209  RH  069%=      5-min Rain = 0
KDO2 150342Z 07005KT 27/21 A3006 RMK A01 T02710209  RH  069%=      5-min Rain = 0
KDO2 150343Z 07005KT 27/21 A3006 RMK A01 T02700209  RH  069%=      5-min Rain = 0
KDO2 150344Z 07005KT 27/21 A3006 RMK A01 T02700209  RH  069%=      5-min Rain = 0
KDO2 150345Z 07005KT 27/21 A3006 RMK A01 T02700209  RH  069%=      5-min Rain = 0
KDO2 150346Z 06005KT 27/21 A3006 RMK A01 T02700209  RH  069%=      5-min Rain = 0
KDO2 150347Z 06005KT 27/21 A3006 RMK A01 T02700209  RH  069%=      5-min Rain = 0
KDO2 150348Z 07004KT 27/21 A3006 RMK A01 T02710210  RH  069%=      5-min Rain = 0
KDO2 150349Z 06004KT 27/21 A3006 RMK A01 T02710210  RH  069%=      5-min Rain = 0
KDO2 150350Z 06004KT 27/21 A3006 RMK A01 T02720210  RH  069%=      5-min Rain = 0
KDO2 150351Z 06004KT 27/21 A3006 RMK A01 T02720210  RH  069%=      5-min Rain = 0
KDO2 150352Z 06004KT 27/21 A3006 RMK A01 T02720210  RH  069%=      5-min Rain = 0
KDO2 150353Z 07004KT 27/21 A3006 RMK A01 T02720210  RH  069%=      5-min Rain = 0
KDO2 150354Z 07004KT 27/21 A3007 RMK A01 T02710209  RH  069%=      5-min Rain = 0
KDO2 150355Z 07003KT 27/21 A3007 RMK A01 T02710210  RH  069%=      5-min Rain = 0
KDO2 150356Z 07003KT 27/21 A3007 RMK A01 T02710209  RH  069%=      5-min Rain = 0
KDO2 150357Z 07003KT 27/21 A3007 RMK A01 T02710209  RH  069%=      5-min Rain = 0
KDO2 150358Z 08003KT 27/21 A3006 RMK A01 T02710210  RH  069%=      5-min Rain = 0
KDO2 150359Z 08003KT 27/21 A3006 RMK A01 T02710210  RH  069%=      5-min Rain = 0
KDO2 150400Z 09002KT 27/21 A3006 RMK A01 T02710209  RH  069%=      5-min Rain = 0
KDO2 150401Z 10002KT 27/21 A3006 RMK A01 T02710209  RH  069%=      5-min Rain = 0
KDO2 150402Z 10002KT 27/21 A3006 RMK A01 T02710209  RH  069%=      5-min Rain = 0
KDO2 150403Z 10002KT 27/21 A3007 RMK A01 T02700209  RH  069%=      5-min Rain = 0
KDO2 150404Z 10002KT 27/21 A3007 RMK A01 T02700209  RH  069%=      5-min Rain = 0
KDO2 150405Z 10002KT 27/21 A3007 RMK A01 T02700209  RH  069%=      5-min Rain = 0
KDO2 150406Z 10002KT 27/21 A3007 RMK A01 T02700208  RH  069%=      5-min Rain = 0
KDO2 150407Z 10002KT 27/21 A3007 RMK A01 T02690209  RH  069%=      5-min Rain = 0
KDO2 150408Z 09002KT 27/21 A3007 RMK A01 T02690208  RH  069%=      5-min Rain = 0
KDO2 150409Z 09002KT 27/21 A3007 RMK A01 T02690208  RH  069%=      5-min Rain = 0
KDO2 150410Z 10002KT 27/21 A3007 RMK A01 T02690209  RH  070%=      5-min Rain = 0
KDO2 150411Z 11002KT 27/21 A3007 RMK A01 T02680209  RH  070%=      5-min Rain = 0
KDO2 150412Z 11002KT 27/21 A3007 RMK A01 T02680209  RH  070%=      5-min Rain = 0
KDO2 150413Z 11002KT 27/21 A3007 RMK A01 T02680209  RH  070%=      5-min Rain = 0
KDO2 150414Z 11002KT 27/21 A3007 RMK A01 T02680208  RH  070%=      5-min Rain = 0
KDO2 150415Z 11002KT 27/21 A3007 RMK A01 T02680209  RH  070%=      5-min Rain = 0
KDO2 150416Z 11001KT 27/21 A3007 RMK A01 T02670208  RH  070%=      5-min Rain = 0
KDO2 150417Z 11001KT 27/21 A3007 RMK A01 T02670208  RH  070%=      5-min Rain = 0
KDO2 150418Z 11000KT 27/21 A3007 RMK A01 T02660208  RH  070%=      5-min Rain = 0
KDO2 150419Z 11000KT 27/21 A3007 RMK A01 T02660207  RH  070%=      5-min Rain = 0
KDO2 150420Z 11000KT 27/21 A3007 RMK A01 T02650206  RH  070%=      5-min Rain = 0
KDO2 150421Z 00000KT 26/21 A3007 RMK A01 T02640206  RH  070%=      5-min Rain = 0
KDO2 150422Z 11000KT 26/21 A3007 RMK A01 T02640207  RH  071%=      5-min Rain = 0
KDO2 150423Z 11000KT 26/21 A3007 RMK A01 T02640207  RH  071%=      5-min Rain = 0
KDO2 150424Z 10001KT 26/21 A3007 RMK A01 T02640206  RH  071%=      5-min Rain = 0
KDO2 150425Z 09002KT 26/21 A3007 RMK A01 T02640206  RH  071%=      5-min Rain = 0
KDO2 150426Z 09002KT 26/21 A3007 RMK A01 T02640205  RH  070%=      5-min Rain = 0
KDO2 150427Z 09002KT 26/21 A3007 RMK A01 T02640208  RH  071%=      5-min Rain = 0
KDO2 150428Z 09002KT 26/21 A3007 RMK A01 T02640207  RH  071%=      5-min Rain = 0
KDO2 150429Z 09002KT 26/21 A3007 RMK A01 T02640206  RH  071%=      5-min Rain = 0
KDO2 150430Z 09002KT 26/21 A3007 RMK A01 T02640206  RH  070%=      5-min Rain = 0
KDO2 150431Z 08002KT 27/21 A3007 RMK A01 T02650206  RH  070%=      5-min Rain = 0
KDO2 150432Z 08003KT 27/21 A3007 RMK A01 T02650207  RH  071%=      5-min Rain = 0
KDO2 150433Z 08003KT 27/21 A3007 RMK A01 T02650208  RH  071%=      5-min Rain = 0
KDO2 150434Z 07003KT 27/21 A3007 RMK A01 T02650207  RH  071%=      5-min Rain = 0
KDO2 150435Z 07003KT 27/21 A3007 RMK A01 T02650207  RH  070%=      5-min Rain = 0
KDO2 150436Z 08003KT 27/21 A3007 RMK A01 T02650207  RH  070%=      5-min Rain = 0
KDO2 150437Z 08003KT 27/21 A3007 RMK A01 T02650208  RH  071%=      5-min Rain = 0
KDO2 150438Z 08003KT 27/21 A3007 RMK A01 T02650207  RH  070%=      5-min Rain = 0
KDO2 150439Z 07003KT 27/21 A3007 RMK A01 T02650206  RH  070%=      5-min Rain = 0
KDO2 150440Z 06003KT 26/21 A3007 RMK A01 T02640206  RH  070%=      5-min Rain = 0
KDO2 150441Z 07003KT 26/21 A3007 RMK A01 T02630206  RH  071%=      5-min Rain = 0
KDO2 150442Z 07003KT 26/21 A3007 RMK A01 T02620206  RH  071%=      5-min Rain = 0
KDO2 150443Z 07003KT 26/21 A3007 RMK A01 T02620206  RH  072%=      5-min Rain = 0
KDO2 150444Z 07002KT 26/21 A3007 RMK A01 T02610206  RH  072%=      5-min Rain = 0
KDO2 150445Z 07002KT 26/21 A3007 RMK A01 T02610207  RH  072%=      5-min Rain = 0
KDO2 150446Z 07002KT 26/21 A3007 RMK A01 T02600207  RH  072%=      5-min Rain = 0
KDO2 150447Z 07002KT 26/21 A3007 RMK A01 T02600207  RH  073%=      5-min Rain = 0
KDO2 150448Z 07002KT 26/21 A3007 RMK A01 T02590207  RH  073%=      5-min Rain = 0
KDO2 150449Z 07002KT 26/21 A3007 RMK A01 T02590207  RH  073%=      5-min Rain = 0
KDO2 150450Z 07002KT 26/21 A3007 RMK A01 T02590207  RH  073%=      5-min Rain = 0
KDO2 150451Z 07002KT 26/21 A3007 RMK A01 T02590207  RH  073%=      5-min Rain = 0
KDO2 150452Z 07002KT 26/21 A3007 RMK A01 T02580207  RH  073%=      5-min Rain = 0
KDO2 150453Z 06002KT 26/21 A3007 RMK A01 T02580208  RH  074%=      5-min Rain = 0
KDO2 150454Z 06002KT 26/21 A3007 RMK A01 T02590209  RH  074%=      5-min Rain = 0
KDO2 150455Z 05002KT 26/21 A3007 RMK A01 T02580209  RH  074%=      5-min Rain = 0
KDO2 150456Z 05001KT 26/21 A3007 RMK A01 T02580208  RH  074%=      5-min Rain = 0
KDO2 150457Z 05002KT 26/21 A3007 RMK A01 T02590208  RH  074%=      5-min Rain = 0
KDO2 150458Z 06002KT 26/21 A3007 RMK A01 T02590208  RH  074%=      5-min Rain = 0
KDO2 150459Z 07002KT 26/21 A3007 RMK A01 T02590209  RH  074%=      5-min Rain = 0

Page generated in 0.0727 seconds.